<?xml version="1.0" encoding="UTF-8" standalone="no" ?>
<gpx xmlns="http://www.topografix.com/GPX/1/1" xmlns:xsi="http://www.w3.org/2001/XMLSchema-instance" xsi:schemaLocation="http://www.topografix.com/GPX/1/1 http://www.topografix.com/GPX/1/1/gpx.xsd" version="1.1" creator="VisuGPX - https://www.visugpx.com">
  <metadata>
    <name>GR 470- Langeac -Prades</name>
  </metadata>
  <trk>
    <name><![CDATA[GR470 etape 4-MNT]]></name>
    <trkseg>
      <trkpt lat="45.09893" lon="3.49452">
        <ele>504.195007</ele>
        <time>2011-04-11T20:56:48Z</time>
      </trkpt>
      <trkpt lat="45.09846" lon="3.49471">
        <ele>503.547485</ele>
        <time>2011-04-11T20:56:48Z</time>
      </trkpt>
      <trkpt lat="45.09832" lon="3.49523">
        <ele>501.568115</ele>
        <time>2011-04-11T20:56:48Z</time>
      </trkpt>
      <trkpt lat="45.09821" lon="3.49568">
        <ele>499.952911</ele>
        <time>2012-01-30T11:52:24Z</time>
      </trkpt>
      <trkpt lat="45.09828" lon="3.49602">
        <ele>498.527527</ele>
        <time>2012-01-13T21:17:53Z</time>
      </trkpt>
      <trkpt lat="45.09831" lon="3.49636">
        <ele>497.868317</ele>
        <time>2011-12-28T15:31:05Z</time>
      </trkpt>
      <trkpt lat="45.09829" lon="3.49671">
        <ele>497.601807</ele>
        <time>2011-12-12T13:43:17Z</time>
      </trkpt>
      <trkpt lat="45.09828" lon="3.49685">
        <ele>497.540009</ele>
        <time>2011-12-06T09:15:06Z</time>
      </trkpt>
      <trkpt lat="45.09823" lon="3.4969">
        <ele>497.429993</ele>
        <time>2011-12-02T08:52:45Z</time>
      </trkpt>
      <trkpt lat="45.09818" lon="3.49692">
        <ele>497.327515</ele>
        <time>2011-11-28T22:59:43Z</time>
      </trkpt>
      <trkpt lat="45.09809" lon="3.49692">
        <ele>497.109985</ele>
        <time>2011-11-23T01:51:15Z</time>
      </trkpt>
      <trkpt lat="45.09799" lon="3.49695">
        <ele>496.974945</ele>
        <time>2011-11-17T01:31:43Z</time>
      </trkpt>
      <trkpt lat="45.09793" lon="3.49697">
        <ele>496.927612</ele>
        <time>2011-11-12T14:32:55Z</time>
      </trkpt>
      <trkpt lat="45.0979" lon="3.49718">
        <ele>496.816376</ele>
        <time>2011-11-03T04:24:19Z</time>
      </trkpt>
      <trkpt lat="45.09777" lon="3.49737">
        <ele>496.44751</ele>
        <time>2011-10-21T19:56:51Z</time>
      </trkpt>
      <trkpt lat="45.09753" lon="3.49761">
        <ele>496</ele>
        <time>2011-10-03T21:19:02Z</time>
      </trkpt>
      <trkpt lat="45.09733" lon="3.49779">
        <ele>496</ele>
        <time>2011-09-18T20:29:02Z</time>
      </trkpt>
      <trkpt lat="45.09711" lon="3.49796">
        <ele>496.004547</ele>
        <time>2011-09-03T11:07:38Z</time>
      </trkpt>
      <trkpt lat="45.09687" lon="3.49815">
        <ele>496.082092</ele>
        <time>2011-08-17T09:51:55Z</time>
      </trkpt>
      <trkpt lat="45.09663" lon="3.49842">
        <ele>496.040161</ele>
        <time>2011-07-29T07:16:38Z</time>
      </trkpt>
      <trkpt lat="45.09643" lon="3.49869">
        <ele>496.025299</ele>
        <time>2011-07-12T04:21:49Z</time>
      </trkpt>
      <trkpt lat="45.09623" lon="3.49896">
        <ele>496.011108</ele>
        <time>2011-06-25T02:46:36Z</time>
      </trkpt>
      <trkpt lat="45.09603" lon="3.49932">
        <ele>496.033142</ele>
        <time>2011-06-05T17:07:43Z</time>
      </trkpt>
      <trkpt lat="45.09582" lon="3.49965">
        <ele>496.076874</ele>
        <time>2011-05-17T02:58:42Z</time>
      </trkpt>
      <trkpt lat="45.09567" lon="3.4999">
        <ele>496.003937</ele>
        <time>2011-05-03T03:53:23Z</time>
      </trkpt>
      <trkpt lat="45.09553" lon="3.50021">
        <ele>495.756348</ele>
        <time>2011-04-18T04:23:48Z</time>
      </trkpt>
      <trkpt lat="45.09536" lon="3.50059">
        <ele>495.142761</ele>
        <time>2011-04-14T14:08:33Z</time>
      </trkpt>
      <trkpt lat="45.09529" lon="3.50079">
        <ele>495.007538</ele>
        <time>2011-04-11T20:56:48Z</time>
      </trkpt>
      <trkpt lat="45.0951" lon="3.50123">
        <ele>495.054382</ele>
        <time>2011-04-11T20:56:48Z</time>
      </trkpt>
      <trkpt lat="45.09484" lon="3.50172">
        <ele>495.011078</ele>
        <time>2011-04-11T20:56:48Z</time>
      </trkpt>
      <trkpt lat="45.09467" lon="3.50201">
        <ele>494.627502</ele>
        <time>2011-04-11T20:56:48Z</time>
      </trkpt>
      <trkpt lat="45.09424" lon="3.50282">
        <ele>494.941254</ele>
        <time>2011-04-11T20:56:48Z</time>
      </trkpt>
      <trkpt lat="45.0941" lon="3.50317">
        <ele>495.797516</ele>
        <time>2011-04-11T20:56:48Z</time>
      </trkpt>
      <trkpt lat="45.09403" lon="3.50345">
        <ele>496.403748</ele>
        <time>2011-04-11T20:56:48Z</time>
      </trkpt>
      <trkpt lat="45.09393" lon="3.50367">
        <ele>496.963745</ele>
        <time>2011-04-11T20:56:48Z</time>
      </trkpt>
      <trkpt lat="45.09386" lon="3.50377">
        <ele>497.134399</ele>
        <time>2011-04-11T20:56:48Z</time>
      </trkpt>
      <trkpt lat="45.09378" lon="3.50374">
        <ele>497.32428</ele>
        <time>2011-04-11T20:56:48Z</time>
      </trkpt>
      <trkpt lat="45.09371" lon="3.5037">
        <ele>497.485626</ele>
        <time>2011-04-11T20:56:48Z</time>
      </trkpt>
      <trkpt lat="45.0939" lon="3.50282">
        <ele>495.852081</ele>
        <time>2011-04-11T20:56:48Z</time>
      </trkpt>
      <trkpt lat="45.09403" lon="3.50225">
        <ele>494.774994</ele>
        <time>2011-04-11T20:56:48Z</time>
      </trkpt>
      <trkpt lat="45.09357" lon="3.50208">
        <ele>499.815002</ele>
        <time>2011-04-11T20:56:48Z</time>
      </trkpt>
      <trkpt lat="45.09352" lon="3.50191">
        <ele>500.535004</ele>
        <time>2011-04-11T20:56:48Z</time>
      </trkpt>
      <trkpt lat="45.0935" lon="3.50157">
        <ele>501.816193</ele>
        <time>2011-04-11T20:56:48Z</time>
      </trkpt>
      <trkpt lat="45.09351" lon="3.50139">
        <ele>502.570923</ele>
        <time>2011-04-11T20:56:48Z</time>
      </trkpt>
      <trkpt lat="45.09311" lon="3.50114">
        <ele>509.194061</ele>
        <time>2011-04-11T20:56:48Z</time>
      </trkpt>
      <trkpt lat="45.09233" lon="3.50056">
        <ele>520.777527</ele>
        <time>2011-04-11T20:56:48Z</time>
      </trkpt>
      <trkpt lat="45.09206" lon="3.5003">
        <ele>525.10553</ele>
        <time>2011-04-11T20:56:48Z</time>
      </trkpt>
      <trkpt lat="45.09184" lon="3.50033">
        <ele>526.573914</ele>
        <time>2011-04-11T20:56:48Z</time>
      </trkpt>
      <trkpt lat="45.09116" lon="3.5005">
        <ele>528.940735</ele>
        <time>2011-04-11T20:56:48Z</time>
      </trkpt>
      <trkpt lat="45.09089" lon="3.50065">
        <ele>528.934692</ele>
        <time>2011-04-11T20:56:48Z</time>
      </trkpt>
      <trkpt lat="45.09052" lon="3.50082">
        <ele>527.75</ele>
        <time>2011-04-11T20:56:48Z</time>
      </trkpt>
      <trkpt lat="45.09029" lon="3.50095">
        <ele>526.522339</ele>
        <time>2011-04-11T20:56:48Z</time>
      </trkpt>
      <trkpt lat="45.09001" lon="3.50111">
        <ele>524.139526</ele>
        <time>2011-04-11T20:56:48Z</time>
      </trkpt>
      <trkpt lat="45.08983" lon="3.5012">
        <ele>522.798767</ele>
        <time>2011-04-11T20:56:48Z</time>
      </trkpt>
      <trkpt lat="45.08967" lon="3.50123">
        <ele>521.43573</ele>
        <time>2011-04-11T20:56:48Z</time>
      </trkpt>
      <trkpt lat="45.08955" lon="3.50119">
        <ele>520.186157</ele>
        <time>2011-04-11T20:56:48Z</time>
      </trkpt>
      <trkpt lat="45.08946" lon="3.50126">
        <ele>519.424866</ele>
        <time>2011-04-11T20:56:48Z</time>
      </trkpt>
      <trkpt lat="45.08909" lon="3.50146">
        <ele>516.302612</ele>
        <time>2011-04-11T20:56:48Z</time>
      </trkpt>
      <trkpt lat="45.08883" lon="3.50155">
        <ele>514.771362</ele>
        <time>2011-04-11T20:56:48Z</time>
      </trkpt>
      <trkpt lat="45.08871" lon="3.50161">
        <ele>514.402405</ele>
        <time>2011-04-11T20:56:48Z</time>
      </trkpt>
      <trkpt lat="45.08844" lon="3.50183">
        <ele>513.975037</ele>
        <time>2011-04-11T20:56:48Z</time>
      </trkpt>
      <trkpt lat="45.08786" lon="3.50221">
        <ele>512.623779</ele>
        <time>2011-04-11T20:56:48Z</time>
      </trkpt>
      <trkpt lat="45.08763" lon="3.50244">
        <ele>512</ele>
        <time>2011-04-11T20:56:48Z</time>
      </trkpt>
      <trkpt lat="45.08746" lon="3.50265">
        <ele>512</ele>
        <time>2011-04-11T20:56:48Z</time>
      </trkpt>
      <trkpt lat="45.08728" lon="3.50285">
        <ele>512</ele>
        <time>2011-04-11T20:56:48Z</time>
      </trkpt>
      <trkpt lat="45.08697" lon="3.50298">
        <ele>512.063232</ele>
        <time>2011-04-11T20:56:48Z</time>
      </trkpt>
      <trkpt lat="45.08663" lon="3.50312">
        <ele>512.079773</ele>
        <time>2011-04-11T20:56:48Z</time>
      </trkpt>
      <trkpt lat="45.08632" lon="3.50329">
        <ele>512.57312</ele>
        <time>2011-04-11T20:56:48Z</time>
      </trkpt>
      <trkpt lat="45.08615" lon="3.50333">
        <ele>512.97998</ele>
        <time>2011-04-11T20:56:48Z</time>
      </trkpt>
      <trkpt lat="45.08595" lon="3.50331">
        <ele>513.402527</ele>
        <time>2011-04-11T20:56:48Z</time>
      </trkpt>
      <trkpt lat="45.08575" lon="3.50329">
        <ele>513.883179</ele>
        <time>2011-04-11T20:56:48Z</time>
      </trkpt>
      <trkpt lat="45.08555" lon="3.50322">
        <ele>514.45166</ele>
        <time>2011-08-11T13:00:31Z</time>
      </trkpt>
      <trkpt lat="45.08526" lon="3.50318">
        <ele>515.27002</ele>
        <time>2012-01-30T11:52:24Z</time>
      </trkpt>
      <trkpt lat="45.0848" lon="3.50313">
        <ele>516.4328</ele>
        <time>2011-04-11T20:56:48Z</time>
      </trkpt>
      <trkpt lat="45.08462" lon="3.50309">
        <ele>517.107361</ele>
        <time>2011-04-11T20:56:48Z</time>
      </trkpt>
      <trkpt lat="45.08452" lon="3.50311">
        <ele>517.433289</ele>
        <time>2011-04-11T20:56:48Z</time>
      </trkpt>
      <trkpt lat="45.08414" lon="3.50305">
        <ele>518.924866</ele>
        <time>2011-04-11T20:56:48Z</time>
      </trkpt>
      <trkpt lat="45.08375" lon="3.50298">
        <ele>519.539978</ele>
        <time>2011-04-11T20:56:48Z</time>
      </trkpt>
      <trkpt lat="45.08359" lon="3.50294">
        <ele>519.66748</ele>
        <time>2011-04-11T20:56:48Z</time>
      </trkpt>
      <trkpt lat="45.08345" lon="3.50281">
        <ele>519.772522</ele>
        <time>2011-04-11T20:56:48Z</time>
      </trkpt>
      <trkpt lat="45.0832" lon="3.50261">
        <ele>519.804993</ele>
        <time>2011-04-11T20:56:48Z</time>
      </trkpt>
      <trkpt lat="45.08303" lon="3.50239">
        <ele>520.125</ele>
        <time>2011-04-11T20:56:48Z</time>
      </trkpt>
      <trkpt lat="45.08286" lon="3.50219">
        <ele>520.359985</ele>
        <time>2011-04-11T20:56:48Z</time>
      </trkpt>
      <trkpt lat="45.08251" lon="3.50183">
        <ele>520.275024</ele>
        <time>2011-04-11T20:56:48Z</time>
      </trkpt>
      <trkpt lat="45.08241" lon="3.50169">
        <ele>520.222473</ele>
        <time>2011-04-11T20:56:48Z</time>
      </trkpt>
      <trkpt lat="45.08234" lon="3.50154">
        <ele>520.42749</ele>
        <time>2011-04-11T20:56:48Z</time>
      </trkpt>
      <trkpt lat="45.08227" lon="3.50136">
        <ele>520.91864</ele>
        <time>2011-04-11T20:56:48Z</time>
      </trkpt>
      <trkpt lat="45.08221" lon="3.50128">
        <ele>521.074158</ele>
        <time>2011-04-11T20:56:48Z</time>
      </trkpt>
      <trkpt lat="45.08209" lon="3.50121">
        <ele>520.992004</ele>
        <time>2011-04-11T20:56:48Z</time>
      </trkpt>
      <trkpt lat="45.08195" lon="3.50115">
        <ele>520.713074</ele>
        <time>2011-04-11T20:56:48Z</time>
      </trkpt>
      <trkpt lat="45.08158" lon="3.50094">
        <ele>520.330017</ele>
        <time>2011-04-11T20:56:48Z</time>
      </trkpt>
      <trkpt lat="45.08141" lon="3.50076">
        <ele>520.717529</ele>
        <time>2011-04-11T20:56:48Z</time>
      </trkpt>
      <trkpt lat="45.0813" lon="3.50057">
        <ele>521.287842</ele>
        <time>2011-04-11T20:56:48Z</time>
      </trkpt>
      <trkpt lat="45.08105" lon="3.50007">
        <ele>522.42627</ele>
        <time>2011-04-11T20:56:48Z</time>
      </trkpt>
      <trkpt lat="45.0808" lon="3.50001">
        <ele>521.733154</ele>
        <time>2011-04-11T20:56:48Z</time>
      </trkpt>
      <trkpt lat="45.08063" lon="3.49992">
        <ele>521.531311</ele>
        <time>2011-04-11T20:56:48Z</time>
      </trkpt>
      <trkpt lat="45.08048" lon="3.49979">
        <ele>521.435791</ele>
        <time>2011-04-11T20:56:48Z</time>
      </trkpt>
      <trkpt lat="45.08023" lon="3.49949">
        <ele>522.203735</ele>
        <time>2011-04-11T20:56:48Z</time>
      </trkpt>
      <trkpt lat="45.08004" lon="3.49937">
        <ele>522.693726</ele>
        <time>2012-01-30T11:52:24Z</time>
      </trkpt>
      <trkpt lat="45.07992" lon="3.4994">
        <ele>522.224976</ele>
        <time>2011-09-03T10:25:14Z</time>
      </trkpt>
      <trkpt lat="45.07983" lon="3.49951">
        <ele>521.075012</ele>
        <time>2011-04-11T20:56:48Z</time>
      </trkpt>
      <trkpt lat="45.07982" lon="3.4997">
        <ele>520.342834</ele>
        <time>2011-04-11T20:56:48Z</time>
      </trkpt>
      <trkpt lat="45.07986" lon="3.49997">
        <ele>519.853149</ele>
        <time>2011-04-11T20:56:48Z</time>
      </trkpt>
      <trkpt lat="45.07962" lon="3.50056">
        <ele>520.338379</ele>
        <time>2011-04-11T20:56:48Z</time>
      </trkpt>
      <trkpt lat="45.07939" lon="3.50143">
        <ele>525.182251</ele>
        <time>2011-04-11T20:56:48Z</time>
      </trkpt>
      <trkpt lat="45.07912" lon="3.50183">
        <ele>531.201782</ele>
        <time>2011-04-11T20:56:48Z</time>
      </trkpt>
      <trkpt lat="45.07906" lon="3.50212">
        <ele>534.320007</ele>
        <time>2011-04-11T20:56:48Z</time>
      </trkpt>
      <trkpt lat="45.07909" lon="3.50261">
        <ele>537.955994</ele>
        <time>2011-04-11T20:56:48Z</time>
      </trkpt>
      <trkpt lat="45.07914" lon="3.503">
        <ele>540.095032</ele>
        <time>2011-04-11T20:56:48Z</time>
      </trkpt>
      <trkpt lat="45.07916" lon="3.50326">
        <ele>541.580017</ele>
        <time>2011-04-11T20:56:48Z</time>
      </trkpt>
      <trkpt lat="45.07908" lon="3.50344">
        <ele>543.046875</ele>
        <time>2011-04-11T20:56:48Z</time>
      </trkpt>
      <trkpt lat="45.07901" lon="3.50373">
        <ele>543.931213</ele>
        <time>2011-04-11T20:56:48Z</time>
      </trkpt>
      <trkpt lat="45.07891" lon="3.50398">
        <ele>545.046082</ele>
        <time>2011-04-11T20:56:48Z</time>
      </trkpt>
      <trkpt lat="45.07875" lon="3.50428">
        <ele>545.783875</ele>
        <time>2011-04-11T20:56:48Z</time>
      </trkpt>
      <trkpt lat="45.07867" lon="3.50442">
        <ele>546.054016</ele>
        <time>2011-09-10T10:34:42Z</time>
      </trkpt>
      <trkpt lat="45.07858" lon="3.50455">
        <ele>546.363037</ele>
        <time>2012-01-30T11:52:24Z</time>
      </trkpt>
      <trkpt lat="45.07822" lon="3.50488">
        <ele>547.799988</ele>
        <time>2012-01-30T11:52:24Z</time>
      </trkpt>
      <trkpt lat="45.07798" lon="3.50524">
        <ele>548.238953</ele>
        <time>2011-07-20T21:35:37Z</time>
      </trkpt>
      <trkpt lat="45.07784" lon="3.50542">
        <ele>548.755493</ele>
        <time>2011-04-11T20:56:48Z</time>
      </trkpt>
      <trkpt lat="45.07768" lon="3.50551">
        <ele>549.733765</ele>
        <time>2011-04-11T20:56:48Z</time>
      </trkpt>
      <trkpt lat="45.07742" lon="3.50559">
        <ele>551.328735</ele>
        <time>2011-04-11T20:56:48Z</time>
      </trkpt>
      <trkpt lat="45.07731" lon="3.5057">
        <ele>551.921265</ele>
        <time>2011-04-11T20:56:48Z</time>
      </trkpt>
      <trkpt lat="45.07719" lon="3.5059">
        <ele>552.435852</ele>
        <time>2011-04-11T20:56:48Z</time>
      </trkpt>
      <trkpt lat="45.07703" lon="3.50626">
        <ele>553.144775</ele>
        <time>2012-01-30T11:52:24Z</time>
      </trkpt>
      <trkpt lat="45.07691" lon="3.50665">
        <ele>553.86908</ele>
        <time>2011-08-21T10:40:03Z</time>
      </trkpt>
      <trkpt lat="45.07682" lon="3.50699">
        <ele>555.353333</ele>
        <time>2011-04-11T20:56:48Z</time>
      </trkpt>
      <trkpt lat="45.07683" lon="3.5073">
        <ele>556.252502</ele>
        <time>2011-04-11T20:56:48Z</time>
      </trkpt>
      <trkpt lat="45.07685" lon="3.50753">
        <ele>556.830017</ele>
        <time>2011-04-11T20:56:48Z</time>
      </trkpt>
      <trkpt lat="45.07684" lon="3.50774">
        <ele>557.515015</ele>
        <time>2011-04-11T20:56:48Z</time>
      </trkpt>
      <trkpt lat="45.07681" lon="3.50799">
        <ele>558.530029</ele>
        <time>2011-04-11T20:56:48Z</time>
      </trkpt>
      <trkpt lat="45.0768" lon="3.50821">
        <ele>559.225037</ele>
        <time>2011-04-11T20:56:48Z</time>
      </trkpt>
      <trkpt lat="45.07676" lon="3.50844">
        <ele>560.286255</ele>
        <time>2011-04-11T20:56:48Z</time>
      </trkpt>
      <trkpt lat="45.0766" lon="3.50883">
        <ele>563.726929</ele>
        <time>2012-01-30T11:52:24Z</time>
      </trkpt>
      <trkpt lat="45.07656" lon="3.50896">
        <ele>564.953308</ele>
        <time>2011-07-31T01:03:15Z</time>
      </trkpt>
      <trkpt lat="45.07658" lon="3.50904">
        <ele>565.029968</ele>
        <time>2011-04-11T20:56:48Z</time>
      </trkpt>
      <trkpt lat="45.07682" lon="3.50927">
        <ele>562.607544</ele>
        <time>2011-04-11T20:56:48Z</time>
      </trkpt>
      <trkpt lat="45.07687" lon="3.50941">
        <ele>562.639709</ele>
        <time>2011-06-09T22:09:22Z</time>
      </trkpt>
      <trkpt lat="45.07692" lon="3.50978">
        <ele>563.780029</ele>
        <time>2011-10-26T12:43:23Z</time>
      </trkpt>
      <trkpt lat="45.07696" lon="3.51004">
        <ele>564.441223</ele>
        <time>2012-01-30T11:52:24Z</time>
      </trkpt>
      <trkpt lat="45.07709" lon="3.51051">
        <ele>565.273743</ele>
        <time>2011-04-11T20:56:48Z</time>
      </trkpt>
      <trkpt lat="45.07712" lon="3.51062">
        <ele>565.422424</ele>
        <time>2011-04-11T20:56:48Z</time>
      </trkpt>
      <trkpt lat="45.07735" lon="3.51134">
        <ele>566.669983</ele>
        <time>2011-04-11T20:56:48Z</time>
      </trkpt>
      <trkpt lat="45.07735" lon="3.51143">
        <ele>567.212463</ele>
        <time>2011-09-08T22:29:48Z</time>
      </trkpt>
      <trkpt lat="45.07735" lon="3.51151">
        <ele>567.804993</ele>
        <time>2012-01-30T11:52:24Z</time>
      </trkpt>
      <trkpt lat="45.07711" lon="3.51186">
        <ele>573.195007</ele>
        <time>2012-01-30T11:52:24Z</time>
      </trkpt>
      <trkpt lat="45.07706" lon="3.51195">
        <ele>574.585022</ele>
        <time>2011-09-15T21:51:30Z</time>
      </trkpt>
      <trkpt lat="45.07702" lon="3.51207">
        <ele>576.044983</ele>
        <time>2011-04-11T20:56:48Z</time>
      </trkpt>
      <trkpt lat="45.07703" lon="3.51237">
        <ele>578.262512</ele>
        <time>2011-04-11T20:56:48Z</time>
      </trkpt>
      <trkpt lat="45.07704" lon="3.51277">
        <ele>581.174988</ele>
        <time>2011-04-11T20:56:48Z</time>
      </trkpt>
      <trkpt lat="45.07714" lon="3.51307">
        <ele>582.201233</ele>
        <time>2011-04-11T20:56:48Z</time>
      </trkpt>
      <trkpt lat="45.07722" lon="3.51331">
        <ele>583.003784</ele>
        <time>2011-04-11T20:56:48Z</time>
      </trkpt>
      <trkpt lat="45.07739" lon="3.5136">
        <ele>582.551025</ele>
        <time>2011-04-11T20:56:48Z</time>
      </trkpt>
      <trkpt lat="45.07751" lon="3.5137">
        <ele>581.588379</ele>
        <time>2012-01-30T11:52:24Z</time>
      </trkpt>
      <trkpt lat="45.07751" lon="3.5137">
        <ele>581.588379</ele>
        <time>2012-01-30T11:52:24Z</time>
      </trkpt>
      <trkpt lat="45.07759" lon="3.51382">
        <ele>581.32428</ele>
        <time>2012-01-30T11:52:24Z</time>
      </trkpt>
      <trkpt lat="45.07757" lon="3.51402">
        <ele>582.716003</ele>
        <time>2012-01-30T11:52:24Z</time>
      </trkpt>
      <trkpt lat="45.07751" lon="3.51423">
        <ele>584.296997</ele>
        <time>2012-01-30T11:52:24Z</time>
      </trkpt>
      <trkpt lat="45.07744" lon="3.51458">
        <ele>586.393311</ele>
        <time>2011-04-11T20:56:48Z</time>
      </trkpt>
      <trkpt lat="45.07729" lon="3.51516">
        <ele>588.290527</ele>
        <time>2011-04-11T20:56:48Z</time>
      </trkpt>
      <trkpt lat="45.07689" lon="3.51532">
        <ele>590.871948</ele>
        <time>2011-04-11T20:56:48Z</time>
      </trkpt>
      <trkpt lat="45.07676" lon="3.51541">
        <ele>591.612854</ele>
        <time>2011-04-11T20:56:48Z</time>
      </trkpt>
      <trkpt lat="45.07651" lon="3.51561">
        <ele>594.434265</ele>
        <time>2011-04-11T20:56:48Z</time>
      </trkpt>
      <trkpt lat="45.0762" lon="3.51592">
        <ele>597.334839</ele>
        <time>2011-04-11T20:56:48Z</time>
      </trkpt>
      <trkpt lat="45.07606" lon="3.51613">
        <ele>598.997009</ele>
        <time>2011-04-11T20:56:48Z</time>
      </trkpt>
      <trkpt lat="45.0759" lon="3.51635">
        <ele>600.898193</ele>
        <time>2011-04-11T20:56:48Z</time>
      </trkpt>
      <trkpt lat="45.07572" lon="3.51655">
        <ele>602.201904</ele>
        <time>2011-04-11T20:56:48Z</time>
      </trkpt>
      <trkpt lat="45.07558" lon="3.51663">
        <ele>603.281555</ele>
        <time>2011-04-11T20:56:48Z</time>
      </trkpt>
      <trkpt lat="45.07537" lon="3.51667">
        <ele>605.244751</ele>
        <time>2011-04-11T20:56:48Z</time>
      </trkpt>
      <trkpt lat="45.07518" lon="3.51668">
        <ele>606.510254</ele>
        <time>2011-04-11T20:56:48Z</time>
      </trkpt>
      <trkpt lat="45.07506" lon="3.51671">
        <ele>606.948608</ele>
        <time>2011-04-11T20:56:48Z</time>
      </trkpt>
      <trkpt lat="45.07493" lon="3.51675">
        <ele>607.322083</ele>
        <time>2011-04-11T20:56:48Z</time>
      </trkpt>
      <trkpt lat="45.07484" lon="3.51684">
        <ele>606.655029</ele>
        <time>2011-04-11T20:56:48Z</time>
      </trkpt>
      <trkpt lat="45.07475" lon="3.51695">
        <ele>605.557495</ele>
        <time>2011-04-11T20:56:48Z</time>
      </trkpt>
      <trkpt lat="45.07469" lon="3.51701">
        <ele>605.001221</ele>
        <time>2011-04-11T20:56:48Z</time>
      </trkpt>
      <trkpt lat="45.07464" lon="3.5172">
        <ele>603.04248</ele>
        <time>2011-04-11T20:56:48Z</time>
      </trkpt>
      <trkpt lat="45.07462" lon="3.51728">
        <ele>602.277527</ele>
        <time>2011-04-11T20:56:48Z</time>
      </trkpt>
      <trkpt lat="45.07455" lon="3.51759">
        <ele>599.422485</ele>
        <time>2011-07-18T07:37:14Z</time>
      </trkpt>
      <trkpt lat="45.07437" lon="3.51821">
        <ele>596.116821</ele>
        <time>2012-01-30T11:52:24Z</time>
      </trkpt>
      <trkpt lat="45.07435" lon="3.51832">
        <ele>595.856262</ele>
        <time>2011-10-22T10:16:15Z</time>
      </trkpt>
      <trkpt lat="45.07434" lon="3.51855">
        <ele>595.481079</ele>
        <time>2011-04-11T20:56:48Z</time>
      </trkpt>
      <trkpt lat="45.07438" lon="3.51868">
        <ele>595.736877</ele>
        <time>2011-04-11T20:56:48Z</time>
      </trkpt>
      <trkpt lat="45.07436" lon="3.51882">
        <ele>596.266357</ele>
        <time>2011-04-11T20:56:48Z</time>
      </trkpt>
      <trkpt lat="45.0743" lon="3.51895">
        <ele>597.085022</ele>
        <time>2011-04-11T20:56:48Z</time>
      </trkpt>
      <trkpt lat="45.07423" lon="3.51912">
        <ele>598.126404</ele>
        <time>2011-04-11T20:56:48Z</time>
      </trkpt>
      <trkpt lat="45.0742" lon="3.5193">
        <ele>599.30188</ele>
        <time>2011-04-11T20:56:48Z</time>
      </trkpt>
      <trkpt lat="45.07427" lon="3.51949">
        <ele>599.707947</ele>
        <time>2011-04-11T20:56:48Z</time>
      </trkpt>
      <trkpt lat="45.07432" lon="3.51967">
        <ele>600.236877</ele>
        <time>2011-06-22T18:52:44Z</time>
      </trkpt>
      <trkpt lat="45.07437" lon="3.51995">
        <ele>601.704285</ele>
        <time>2011-10-07T07:58:42Z</time>
      </trkpt>
      <trkpt lat="45.07438" lon="3.52016">
        <ele>603.23291</ele>
        <time>2012-01-30T11:52:24Z</time>
      </trkpt>
      <trkpt lat="45.0744" lon="3.52056">
        <ele>606.349976</ele>
        <time>2011-04-11T20:56:48Z</time>
      </trkpt>
      <trkpt lat="45.07449" lon="3.52081">
        <ele>607.48999</ele>
        <time>2011-04-11T20:56:48Z</time>
      </trkpt>
      <trkpt lat="45.07452" lon="3.52099">
        <ele>608.772522</ele>
        <time>2011-04-11T20:56:48Z</time>
      </trkpt>
      <trkpt lat="45.07453" lon="3.52135">
        <ele>612.89502</ele>
        <time>2011-04-11T20:56:48Z</time>
      </trkpt>
      <trkpt lat="45.07459" lon="3.52175">
        <ele>617.090027</ele>
        <time>2011-04-11T20:56:48Z</time>
      </trkpt>
      <trkpt lat="45.07461" lon="3.522">
        <ele>619.880005</ele>
        <time>2011-04-11T20:56:48Z</time>
      </trkpt>
      <trkpt lat="45.07463" lon="3.52248">
        <ele>624.685486</ele>
        <time>2011-04-11T20:56:48Z</time>
      </trkpt>
      <trkpt lat="45.07469" lon="3.52351">
        <ele>626.11377</ele>
        <time>2011-04-11T20:56:48Z</time>
      </trkpt>
      <trkpt lat="45.07468" lon="3.52381">
        <ele>623.563232</ele>
        <time>2011-04-11T20:56:48Z</time>
      </trkpt>
      <trkpt lat="45.07464" lon="3.52404">
        <ele>621.113586</ele>
        <time>2011-04-11T20:56:48Z</time>
      </trkpt>
      <trkpt lat="45.07459" lon="3.52416">
        <ele>619.797668</ele>
        <time>2011-04-11T20:56:48Z</time>
      </trkpt>
      <trkpt lat="45.07449" lon="3.52426">
        <ele>618.474243</ele>
        <time>2011-04-11T20:56:48Z</time>
      </trkpt>
      <trkpt lat="45.07434" lon="3.52436">
        <ele>616.410889</ele>
        <time>2011-04-11T20:56:48Z</time>
      </trkpt>
      <trkpt lat="45.07411" lon="3.52453">
        <ele>614.235107</ele>
        <time>2011-04-11T20:56:48Z</time>
      </trkpt>
      <trkpt lat="45.07401" lon="3.52461">
        <ele>613.043152</ele>
        <time>2011-04-11T20:56:48Z</time>
      </trkpt>
      <trkpt lat="45.07382" lon="3.52473">
        <ele>611.837158</ele>
        <time>2011-04-11T20:56:48Z</time>
      </trkpt>
      <trkpt lat="45.07362" lon="3.52489">
        <ele>609.213257</ele>
        <time>2011-04-11T20:56:48Z</time>
      </trkpt>
      <trkpt lat="45.07351" lon="3.52498">
        <ele>607.411743</ele>
        <time>2011-04-11T20:56:48Z</time>
      </trkpt>
      <trkpt lat="45.07323" lon="3.52525">
        <ele>599.479126</ele>
        <time>2011-04-11T20:56:48Z</time>
      </trkpt>
      <trkpt lat="45.07305" lon="3.52538">
        <ele>595.768311</ele>
        <time>2011-04-11T20:56:48Z</time>
      </trkpt>
      <trkpt lat="45.07288" lon="3.52546">
        <ele>593.085266</ele>
        <time>2011-04-11T20:56:48Z</time>
      </trkpt>
      <trkpt lat="45.07271" lon="3.5255">
        <ele>591.703735</ele>
        <time>2011-04-11T20:56:48Z</time>
      </trkpt>
      <trkpt lat="45.07253" lon="3.52551">
        <ele>591.675232</ele>
        <time>2011-04-11T20:56:48Z</time>
      </trkpt>
      <trkpt lat="45.0723" lon="3.52549">
        <ele>593.977051</ele>
        <time>2011-04-11T20:56:48Z</time>
      </trkpt>
      <trkpt lat="45.07217" lon="3.52555">
        <ele>593.673401</ele>
        <time>2011-04-11T20:56:48Z</time>
      </trkpt>
      <trkpt lat="45.07202" lon="3.52565">
        <ele>593.197449</ele>
        <time>2011-04-11T20:56:48Z</time>
      </trkpt>
      <trkpt lat="45.07198" lon="3.52582">
        <ele>589.666321</ele>
        <time>2011-04-11T20:56:48Z</time>
      </trkpt>
      <trkpt lat="45.07199" lon="3.52612">
        <ele>582.162231</ele>
        <time>2011-04-11T20:56:48Z</time>
      </trkpt>
      <trkpt lat="45.07196" lon="3.52638">
        <ele>577.765747</ele>
        <time>2011-04-11T20:56:48Z</time>
      </trkpt>
      <trkpt lat="45.0719" lon="3.52663">
        <ele>574.464417</ele>
        <time>2011-04-11T20:56:48Z</time>
      </trkpt>
      <trkpt lat="45.07191" lon="3.52683">
        <ele>571.711365</ele>
        <time>2011-04-11T20:56:48Z</time>
      </trkpt>
      <trkpt lat="45.07184" lon="3.52725">
        <ele>570.391968</ele>
        <time>2011-04-11T20:56:48Z</time>
      </trkpt>
      <trkpt lat="45.07176" lon="3.52753">
        <ele>569.88501</ele>
        <time>2011-04-11T20:56:48Z</time>
      </trkpt>
      <trkpt lat="45.07159" lon="3.52786">
        <ele>570.787842</ele>
        <time>2011-04-11T20:56:48Z</time>
      </trkpt>
      <trkpt lat="45.07162" lon="3.52802">
        <ele>568.174988</ele>
        <time>2011-04-11T20:56:48Z</time>
      </trkpt>
      <trkpt lat="45.0717" lon="3.52821">
        <ele>562.955811</ele>
        <time>2011-04-11T20:56:48Z</time>
      </trkpt>
      <trkpt lat="45.07179" lon="3.52832">
        <ele>559.204712</ele>
        <time>2011-04-11T20:56:48Z</time>
      </trkpt>
      <trkpt lat="45.07185" lon="3.52839">
        <ele>556.805969</ele>
        <time>2011-04-11T20:56:48Z</time>
      </trkpt>
      <trkpt lat="45.07188" lon="3.52852">
        <ele>554.044189</ele>
        <time>2011-04-11T20:56:48Z</time>
      </trkpt>
      <trkpt lat="45.07189" lon="3.52866">
        <ele>551.884583</ele>
        <time>2011-04-11T20:56:48Z</time>
      </trkpt>
      <trkpt lat="45.07182" lon="3.52884">
        <ele>550.591187</ele>
        <time>2011-04-11T20:56:48Z</time>
      </trkpt>
      <trkpt lat="45.07177" lon="3.52897">
        <ele>549.525757</ele>
        <time>2011-04-11T20:56:48Z</time>
      </trkpt>
      <trkpt lat="45.0717" lon="3.52921">
        <ele>547.008545</ele>
        <time>2011-04-11T20:56:48Z</time>
      </trkpt>
      <trkpt lat="45.07165" lon="3.52946">
        <ele>545.183167</ele>
        <time>2011-04-11T20:56:48Z</time>
      </trkpt>
      <trkpt lat="45.07153" lon="3.52984">
        <ele>543.424133</ele>
        <time>2011-04-11T20:56:48Z</time>
      </trkpt>
      <trkpt lat="45.07145" lon="3.53003">
        <ele>543.000427</ele>
        <time>2011-04-11T20:56:48Z</time>
      </trkpt>
      <trkpt lat="45.07138" lon="3.53019">
        <ele>542.735779</ele>
        <time>2011-04-11T20:56:48Z</time>
      </trkpt>
      <trkpt lat="45.07128" lon="3.53043">
        <ele>542.847351</ele>
        <time>2011-04-11T20:56:48Z</time>
      </trkpt>
      <trkpt lat="45.07116" lon="3.53067">
        <ele>542.531311</ele>
        <time>2011-04-11T20:56:48Z</time>
      </trkpt>
      <trkpt lat="45.07113" lon="3.53082">
        <ele>541.229858</ele>
        <time>2011-04-11T20:56:48Z</time>
      </trkpt>
      <trkpt lat="45.07205" lon="3.53226">
        <ele>518.23291</ele>
        <time>2011-04-11T20:56:48Z</time>
      </trkpt>
      <trkpt lat="45.07216" lon="3.53237">
        <ele>517.574829</ele>
        <time>2011-04-11T20:56:48Z</time>
      </trkpt>
      <trkpt lat="45.07207" lon="3.53262">
        <ele>518.855408</ele>
        <time>2011-04-11T20:56:48Z</time>
      </trkpt>
      <trkpt lat="45.07209" lon="3.53275">
        <ele>520.227905</ele>
        <time>2011-04-11T20:56:48Z</time>
      </trkpt>
      <trkpt lat="45.07218" lon="3.53291">
        <ele>523.091003</ele>
        <time>2011-04-11T20:56:48Z</time>
      </trkpt>
      <trkpt lat="45.07232" lon="3.53313">
        <ele>529.434021</ele>
        <time>2011-04-11T20:56:48Z</time>
      </trkpt>
      <trkpt lat="45.07235" lon="3.53323">
        <ele>533.021729</ele>
        <time>2011-04-11T20:56:48Z</time>
      </trkpt>
      <trkpt lat="45.07227" lon="3.53347">
        <ele>538.483765</ele>
        <time>2011-04-11T20:56:48Z</time>
      </trkpt>
      <trkpt lat="45.07236" lon="3.5334">
        <ele>538.553833</ele>
        <time>2011-04-11T20:56:48Z</time>
      </trkpt>
      <trkpt lat="45.07248" lon="3.5333">
        <ele>538.352722</ele>
        <time>2011-04-11T20:56:48Z</time>
      </trkpt>
      <trkpt lat="45.07251" lon="3.53329">
        <ele>539.293091</ele>
        <time>2011-04-11T20:56:48Z</time>
      </trkpt>
      <trkpt lat="45.07254" lon="3.53332">
        <ele>541.381165</ele>
        <time>2011-04-11T20:56:48Z</time>
      </trkpt>
      <trkpt lat="45.07259" lon="3.53332">
        <ele>543.393677</ele>
        <time>2011-04-11T20:56:48Z</time>
      </trkpt>
      <trkpt lat="45.07268" lon="3.53329">
        <ele>546.269409</ele>
        <time>2011-04-11T20:56:48Z</time>
      </trkpt>
      <trkpt lat="45.07279" lon="3.5333">
        <ele>550.696777</ele>
        <time>2011-04-11T20:56:48Z</time>
      </trkpt>
      <trkpt lat="45.07282" lon="3.5333">
        <ele>551.945557</ele>
        <time>2011-04-11T20:56:48Z</time>
      </trkpt>
      <trkpt lat="45.07285" lon="3.53329">
        <ele>552.694336</ele>
        <time>2011-04-11T20:56:48Z</time>
      </trkpt>
      <trkpt lat="45.07282" lon="3.5334">
        <ele>553.828064</ele>
        <time>2011-04-11T20:56:48Z</time>
      </trkpt>
      <trkpt lat="45.07281" lon="3.53345">
        <ele>554.56543</ele>
        <time>2011-04-11T20:56:48Z</time>
      </trkpt>
      <trkpt lat="45.07285" lon="3.53343">
        <ele>555.605774</ele>
        <time>2011-04-11T20:56:48Z</time>
      </trkpt>
      <trkpt lat="45.07292" lon="3.53336">
        <ele>556.37561</ele>
        <time>2011-04-11T20:56:48Z</time>
      </trkpt>
      <trkpt lat="45.07303" lon="3.53326">
        <ele>555.044128</ele>
        <time>2011-04-11T20:56:48Z</time>
      </trkpt>
      <trkpt lat="45.07311" lon="3.53312">
        <ele>555.434082</ele>
        <time>2011-04-11T20:56:48Z</time>
      </trkpt>
      <trkpt lat="45.07318" lon="3.53296">
        <ele>553.936829</ele>
        <time>2011-04-11T20:56:48Z</time>
      </trkpt>
      <trkpt lat="45.07321" lon="3.53288">
        <ele>553.139709</ele>
        <time>2011-04-11T20:56:48Z</time>
      </trkpt>
      <trkpt lat="45.07329" lon="3.53277">
        <ele>553.669373</ele>
        <time>2011-04-11T20:56:48Z</time>
      </trkpt>
      <trkpt lat="45.07343" lon="3.53278">
        <ele>555.987244</ele>
        <time>2011-04-11T20:56:48Z</time>
      </trkpt>
      <trkpt lat="45.07351" lon="3.53275">
        <ele>555.183105</ele>
        <time>2011-04-11T20:56:48Z</time>
      </trkpt>
      <trkpt lat="45.0736" lon="3.53265">
        <ele>555.075623</ele>
        <time>2011-04-11T20:56:48Z</time>
      </trkpt>
      <trkpt lat="45.0737" lon="3.53255">
        <ele>556.283875</ele>
        <time>2011-04-11T20:56:48Z</time>
      </trkpt>
      <trkpt lat="45.07381" lon="3.53244">
        <ele>558.653076</ele>
        <time>2011-04-11T20:56:48Z</time>
      </trkpt>
      <trkpt lat="45.07394" lon="3.53233">
        <ele>555.684021</ele>
        <time>2011-04-11T20:56:48Z</time>
      </trkpt>
      <trkpt lat="45.07402" lon="3.53228">
        <ele>554.232483</ele>
        <time>2011-04-11T20:56:48Z</time>
      </trkpt>
      <trkpt lat="45.07402" lon="3.53238">
        <ele>554.042175</ele>
        <time>2011-04-11T20:56:48Z</time>
      </trkpt>
      <trkpt lat="45.07401" lon="3.53245">
        <ele>554.073303</ele>
        <time>2011-04-11T20:56:48Z</time>
      </trkpt>
      <trkpt lat="45.074" lon="3.53253">
        <ele>552.603638</ele>
        <time>2011-04-11T20:56:48Z</time>
      </trkpt>
      <trkpt lat="45.07398" lon="3.53268">
        <ele>550.030884</ele>
        <time>2011-04-11T20:56:48Z</time>
      </trkpt>
      <trkpt lat="45.07398" lon="3.53276">
        <ele>548.148682</ele>
        <time>2011-04-11T20:56:48Z</time>
      </trkpt>
      <trkpt lat="45.07394" lon="3.53286">
        <ele>547.19812</ele>
        <time>2011-04-11T20:56:48Z</time>
      </trkpt>
      <trkpt lat="45.0738" lon="3.53303">
        <ele>547.858398</ele>
        <time>2011-04-11T20:56:48Z</time>
      </trkpt>
      <trkpt lat="45.07368" lon="3.53324">
        <ele>545.367432</ele>
        <time>2011-04-11T20:56:48Z</time>
      </trkpt>
      <trkpt lat="45.07364" lon="3.53336">
        <ele>542.956665</ele>
        <time>2011-04-11T20:56:48Z</time>
      </trkpt>
      <trkpt lat="45.07355" lon="3.5335">
        <ele>542.025513</ele>
        <time>2011-04-11T20:56:48Z</time>
      </trkpt>
      <trkpt lat="45.07343" lon="3.53368">
        <ele>542.597656</ele>
        <time>2011-04-11T20:56:48Z</time>
      </trkpt>
      <trkpt lat="45.07329" lon="3.53382">
        <ele>543.508972</ele>
        <time>2011-04-11T20:56:48Z</time>
      </trkpt>
      <trkpt lat="45.07322" lon="3.53391">
        <ele>542.673828</ele>
        <time>2011-04-11T20:56:48Z</time>
      </trkpt>
      <trkpt lat="45.07311" lon="3.53399">
        <ele>544.313232</ele>
        <time>2011-04-11T20:56:48Z</time>
      </trkpt>
      <trkpt lat="45.07301" lon="3.53408">
        <ele>545.282104</ele>
        <time>2011-04-11T20:56:48Z</time>
      </trkpt>
      <trkpt lat="45.07291" lon="3.53419">
        <ele>545.809509</ele>
        <time>2011-04-11T20:56:48Z</time>
      </trkpt>
      <trkpt lat="45.0728" lon="3.53431">
        <ele>543.285889</ele>
        <time>2011-04-11T20:56:48Z</time>
      </trkpt>
      <trkpt lat="45.07266" lon="3.53443">
        <ele>541.711975</ele>
        <time>2011-04-11T20:56:48Z</time>
      </trkpt>
      <trkpt lat="45.07251" lon="3.53449">
        <ele>542.211182</ele>
        <time>2011-04-11T20:56:48Z</time>
      </trkpt>
      <trkpt lat="45.07237" lon="3.53449">
        <ele>544.017273</ele>
        <time>2011-04-11T20:56:48Z</time>
      </trkpt>
      <trkpt lat="45.07227" lon="3.5344">
        <ele>546.013489</ele>
        <time>2011-04-11T20:56:48Z</time>
      </trkpt>
      <trkpt lat="45.07216" lon="3.5343">
        <ele>546.710754</ele>
        <time>2011-04-11T20:56:48Z</time>
      </trkpt>
      <trkpt lat="45.07208" lon="3.5343">
        <ele>546.680603</ele>
        <time>2011-04-11T20:56:48Z</time>
      </trkpt>
      <trkpt lat="45.07203" lon="3.53432">
        <ele>546.896973</ele>
        <time>2011-04-11T20:56:48Z</time>
      </trkpt>
      <trkpt lat="45.07193" lon="3.53444">
        <ele>546.069519</ele>
        <time>2011-04-11T20:56:48Z</time>
      </trkpt>
      <trkpt lat="45.07175" lon="3.53474">
        <ele>545.834106</ele>
        <time>2011-04-11T20:56:48Z</time>
      </trkpt>
      <trkpt lat="45.07159" lon="3.53522">
        <ele>546.531677</ele>
        <time>2011-04-11T20:56:48Z</time>
      </trkpt>
      <trkpt lat="45.07121" lon="3.53585">
        <ele>549.230713</ele>
        <time>2011-04-11T20:56:48Z</time>
      </trkpt>
      <trkpt lat="45.07072" lon="3.53716">
        <ele>560.164978</ele>
        <time>2011-04-11T20:56:48Z</time>
      </trkpt>
      <trkpt lat="45.07067" lon="3.53738">
        <ele>561.815979</ele>
        <time>2011-04-11T20:56:48Z</time>
      </trkpt>
      <trkpt lat="45.07061" lon="3.53772">
        <ele>562.581177</ele>
        <time>2011-04-11T20:56:48Z</time>
      </trkpt>
      <trkpt lat="45.07056" lon="3.53807">
        <ele>561.315613</ele>
        <time>2011-04-11T20:56:48Z</time>
      </trkpt>
      <trkpt lat="45.07047" lon="3.53848">
        <ele>560.03302</ele>
        <time>2011-04-11T20:56:48Z</time>
      </trkpt>
      <trkpt lat="45.0704" lon="3.53893">
        <ele>558.835022</ele>
        <time>2011-04-11T20:56:48Z</time>
      </trkpt>
      <trkpt lat="45.07031" lon="3.5393">
        <ele>558.702026</ele>
        <time>2011-04-11T20:56:48Z</time>
      </trkpt>
      <trkpt lat="45.07027" lon="3.53949">
        <ele>558.824341</ele>
        <time>2011-04-11T20:56:48Z</time>
      </trkpt>
      <trkpt lat="45.07019" lon="3.53976">
        <ele>559.741394</ele>
        <time>2011-04-11T20:56:48Z</time>
      </trkpt>
      <trkpt lat="45.06997" lon="3.54051">
        <ele>559.347351</ele>
        <time>2011-04-11T20:56:48Z</time>
      </trkpt>
      <trkpt lat="45.06951" lon="3.5418">
        <ele>560.738403</ele>
        <time>2011-04-11T20:56:48Z</time>
      </trkpt>
      <trkpt lat="45.06946" lon="3.54229">
        <ele>559.19574</ele>
        <time>2011-04-11T20:56:48Z</time>
      </trkpt>
      <trkpt lat="45.06934" lon="3.54284">
        <ele>559.559998</ele>
        <time>2011-04-11T20:56:48Z</time>
      </trkpt>
      <trkpt lat="45.06934" lon="3.54346">
        <ele>557.3172</ele>
        <time>2011-04-11T20:56:48Z</time>
      </trkpt>
      <trkpt lat="45.06927" lon="3.54446">
        <ele>552.775513</ele>
        <time>2011-04-11T20:56:48Z</time>
      </trkpt>
      <trkpt lat="45.06901" lon="3.54522">
        <ele>541.637634</ele>
        <time>2011-04-11T20:56:48Z</time>
      </trkpt>
      <trkpt lat="45.06884" lon="3.54566">
        <ele>539.046631</ele>
        <time>2011-04-11T20:56:48Z</time>
      </trkpt>
      <trkpt lat="45.0688" lon="3.54579">
        <ele>537.713196</ele>
        <time>2011-04-11T20:56:48Z</time>
      </trkpt>
      <trkpt lat="45.06875" lon="3.5459">
        <ele>537.057739</ele>
        <time>2011-04-11T20:56:48Z</time>
      </trkpt>
      <trkpt lat="45.06863" lon="3.54614">
        <ele>533.856323</ele>
        <time>2012-01-30T11:52:24Z</time>
      </trkpt>
      <trkpt lat="45.06862" lon="3.54602">
        <ele>536.436279</ele>
        <time>2012-01-30T11:52:24Z</time>
      </trkpt>
      <trkpt lat="45.06847" lon="3.54581">
        <ele>541.909119</ele>
        <time>2011-04-11T20:56:48Z</time>
      </trkpt>
      <trkpt lat="45.06833" lon="3.54563">
        <ele>546.026001</ele>
        <time>2011-04-11T20:56:48Z</time>
      </trkpt>
      <trkpt lat="45.06773" lon="3.5469">
        <ele>535.1521</ele>
        <time>2011-04-11T20:56:48Z</time>
      </trkpt>
      <trkpt lat="45.0676" lon="3.5469">
        <ele>537.578369</ele>
        <time>2011-04-11T20:56:48Z</time>
      </trkpt>
      <trkpt lat="45.06749" lon="3.5469">
        <ele>539.741455</ele>
        <time>2011-04-11T20:56:48Z</time>
      </trkpt>
      <trkpt lat="45.06727" lon="3.54712">
        <ele>543.096191</ele>
        <time>2011-04-11T20:56:48Z</time>
      </trkpt>
      <trkpt lat="45.06692" lon="3.54718">
        <ele>547.647949</ele>
        <time>2011-04-11T20:56:48Z</time>
      </trkpt>
      <trkpt lat="45.06632" lon="3.54749">
        <ele>539.275879</ele>
        <time>2011-04-11T20:56:48Z</time>
      </trkpt>
      <trkpt lat="45.06584" lon="3.54771">
        <ele>540.044983</ele>
        <time>2011-04-11T20:56:48Z</time>
      </trkpt>
      <trkpt lat="45.06554" lon="3.54772">
        <ele>539.158752</ele>
        <time>2011-04-11T20:56:48Z</time>
      </trkpt>
      <trkpt lat="45.06518" lon="3.54752">
        <ele>532.22998</ele>
        <time>2011-04-11T20:56:48Z</time>
      </trkpt>
      <trkpt lat="45.06509" lon="3.54735">
        <ele>535.38501</ele>
        <time>2011-04-11T20:56:48Z</time>
      </trkpt>
      <trkpt lat="45.06503" lon="3.54712">
        <ele>540.161987</ele>
        <time>2011-04-11T20:56:48Z</time>
      </trkpt>
      <trkpt lat="45.06498" lon="3.54705">
        <ele>541.532104</ele>
        <time>2011-04-11T20:56:48Z</time>
      </trkpt>
      <trkpt lat="45.06479" lon="3.54708">
        <ele>541.441284</ele>
        <time>2011-04-11T20:56:48Z</time>
      </trkpt>
      <trkpt lat="45.06456" lon="3.54713">
        <ele>541.572632</ele>
        <time>2011-04-11T20:56:48Z</time>
      </trkpt>
      <trkpt lat="45.06432" lon="3.54712">
        <ele>543.202393</ele>
        <time>2011-04-11T20:56:48Z</time>
      </trkpt>
      <trkpt lat="45.0641" lon="3.54708">
        <ele>544.763794</ele>
        <time>2011-04-11T20:56:48Z</time>
      </trkpt>
      <trkpt lat="45.06389" lon="3.54695">
        <ele>545.894592</ele>
        <time>2011-04-11T20:56:48Z</time>
      </trkpt>
      <trkpt lat="45.06368" lon="3.54687">
        <ele>546.018921</ele>
        <time>2011-04-11T20:56:48Z</time>
      </trkpt>
      <trkpt lat="45.0635" lon="3.54684">
        <ele>546.025574</ele>
        <time>2011-04-11T20:56:48Z</time>
      </trkpt>
      <trkpt lat="45.06341" lon="3.54685">
        <ele>545.970764</ele>
        <time>2011-04-11T20:56:48Z</time>
      </trkpt>
      <trkpt lat="45.0632" lon="3.54699">
        <ele>545.515015</ele>
        <time>2011-04-11T20:56:48Z</time>
      </trkpt>
      <trkpt lat="45.06303" lon="3.54719">
        <ele>544.037598</ele>
        <time>2011-04-11T20:56:48Z</time>
      </trkpt>
      <trkpt lat="45.06283" lon="3.54729">
        <ele>542.772339</ele>
        <time>2011-04-11T20:56:48Z</time>
      </trkpt>
      <trkpt lat="45.06263" lon="3.54737">
        <ele>542.689819</ele>
        <time>2011-04-11T20:56:48Z</time>
      </trkpt>
      <trkpt lat="45.06244" lon="3.54747">
        <ele>542.102112</ele>
        <time>2011-04-11T20:56:48Z</time>
      </trkpt>
      <trkpt lat="45.0622" lon="3.54769">
        <ele>544.510193</ele>
        <time>2011-04-11T20:56:48Z</time>
      </trkpt>
      <trkpt lat="45.06194" lon="3.548">
        <ele>545.119995</ele>
        <time>2011-04-11T20:56:48Z</time>
      </trkpt>
      <trkpt lat="45.06145" lon="3.5483">
        <ele>545.018799</ele>
        <time>2011-04-11T20:56:48Z</time>
      </trkpt>
      <trkpt lat="45.06117" lon="3.54842">
        <ele>545.379211</ele>
        <time>2011-08-11T03:47:14Z</time>
      </trkpt>
      <trkpt lat="45.06098" lon="3.54845">
        <ele>545.655029</ele>
        <time>2011-10-26T08:06:45Z</time>
      </trkpt>
      <trkpt lat="45.06074" lon="3.54848">
        <ele>546.387512</ele>
        <time>2012-01-30T11:52:24Z</time>
      </trkpt>
      <trkpt lat="45.06059" lon="3.54847">
        <ele>546.77002</ele>
        <time>2011-09-04T18:56:28Z</time>
      </trkpt>
      <trkpt lat="45.06044" lon="3.54845">
        <ele>547.280029</ele>
        <time>2011-04-11T20:56:48Z</time>
      </trkpt>
      <trkpt lat="45.06033" lon="3.54843">
        <ele>547.679993</ele>
        <time>2011-04-11T20:56:48Z</time>
      </trkpt>
      <trkpt lat="45.06" lon="3.54847">
        <ele>549.38562</ele>
        <time>2011-04-11T20:56:48Z</time>
      </trkpt>
      <trkpt lat="45.05979" lon="3.54852">
        <ele>550.46875</ele>
        <time>2011-04-11T20:56:48Z</time>
      </trkpt>
      <trkpt lat="45.05947" lon="3.54863">
        <ele>551.518738</ele>
        <time>2011-04-11T20:56:48Z</time>
      </trkpt>
      <trkpt lat="45.05896" lon="3.5489">
        <ele>553.984253</ele>
        <time>2011-04-11T20:56:48Z</time>
      </trkpt>
      <trkpt lat="45.05881" lon="3.54892">
        <ele>554.413696</ele>
        <time>2011-04-11T20:56:48Z</time>
      </trkpt>
      <trkpt lat="45.05871" lon="3.54881">
        <ele>554.474976</ele>
        <time>2011-04-11T20:56:48Z</time>
      </trkpt>
      <trkpt lat="45.05867" lon="3.54864">
        <ele>554.304993</ele>
        <time>2011-04-11T20:56:48Z</time>
      </trkpt>
      <trkpt lat="45.05864" lon="3.5486">
        <ele>554.36499</ele>
        <time>2011-04-11T20:56:48Z</time>
      </trkpt>
      <trkpt lat="45.05851" lon="3.54863">
        <ele>554.642517</ele>
        <time>2011-04-11T20:56:48Z</time>
      </trkpt>
      <trkpt lat="45.05844" lon="3.54865">
        <ele>554.816223</ele>
        <time>2011-04-11T20:56:48Z</time>
      </trkpt>
      <trkpt lat="45.05827" lon="3.54866">
        <ele>555.240479</ele>
        <time>2011-04-11T20:56:48Z</time>
      </trkpt>
      <trkpt lat="45.05809" lon="3.54863">
        <ele>555.597961</ele>
        <time>2011-04-11T20:56:48Z</time>
      </trkpt>
      <trkpt lat="45.05785" lon="3.54843">
        <ele>555.815002</ele>
        <time>2011-04-11T20:56:48Z</time>
      </trkpt>
      <trkpt lat="45.05755" lon="3.54798">
        <ele>555.798523</ele>
        <time>2011-04-11T20:56:48Z</time>
      </trkpt>
      <trkpt lat="45.05751" lon="3.54792">
        <ele>555.905518</ele>
        <time>2011-04-11T20:56:48Z</time>
      </trkpt>
      <trkpt lat="45.05736" lon="3.54808">
        <ele>556.587524</ele>
        <time>2011-04-11T20:56:48Z</time>
      </trkpt>
      <trkpt lat="45.05723" lon="3.54824">
        <ele>557.443726</ele>
        <time>2011-04-11T20:56:48Z</time>
      </trkpt>
      <trkpt lat="45.05712" lon="3.54838">
        <ele>558.150024</ele>
        <time>2011-04-11T20:56:48Z</time>
      </trkpt>
      <trkpt lat="45.05705" lon="3.54815">
        <ele>558.102478</ele>
      </trkpt>
      <trkpt lat="45.05697" lon="3.54753">
        <ele>557.69873</ele>
      </trkpt>
      <trkpt lat="45.05682" lon="3.54682">
        <ele>558.528015</ele>
      </trkpt>
      <trkpt lat="45.05676" lon="3.54665">
        <ele>558.592529</ele>
      </trkpt>
      <trkpt lat="45.05656" lon="3.54729">
        <ele>560.954285</ele>
      </trkpt>
      <trkpt lat="45.05642" lon="3.54753">
        <ele>563.977295</ele>
      </trkpt>
      <trkpt lat="45.05658" lon="3.5483">
        <ele>562.79303</ele>
        <time>2012-01-30T11:52:24Z</time>
      </trkpt>
      <trkpt lat="45.0565" lon="3.54857">
        <ele>565.300659</ele>
        <time>2011-11-15T19:48:52Z</time>
      </trkpt>
      <trkpt lat="45.05634" lon="3.54897">
        <ele>571.090515</ele>
        <time>2011-04-11T20:56:48Z</time>
      </trkpt>
      <trkpt lat="45.05622" lon="3.54916">
        <ele>575.055725</ele>
        <time>2011-04-11T20:56:48Z</time>
      </trkpt>
      <trkpt lat="45.05592" lon="3.54993">
        <ele>586.042175</ele>
        <time>2011-04-11T20:56:48Z</time>
      </trkpt>
      <trkpt lat="45.05574" lon="3.55025">
        <ele>587.737854</ele>
        <time>2011-04-11T20:56:48Z</time>
      </trkpt>
      <trkpt lat="45.05549" lon="3.5506">
        <ele>589.702271</ele>
        <time>2011-04-11T20:56:48Z</time>
      </trkpt>
      <trkpt lat="45.05532" lon="3.55075">
        <ele>591.99939</ele>
        <time>2011-04-11T20:56:48Z</time>
      </trkpt>
      <trkpt lat="45.05516" lon="3.55086">
        <ele>593.347168</ele>
        <time>2011-04-11T20:56:48Z</time>
      </trkpt>
      <trkpt lat="45.055" lon="3.55098">
        <ele>594.663269</ele>
        <time>2011-04-11T20:56:48Z</time>
      </trkpt>
      <trkpt lat="45.05485" lon="3.55111">
        <ele>595.062256</ele>
        <time>2011-04-11T20:56:48Z</time>
      </trkpt>
      <trkpt lat="45.05471" lon="3.55123">
        <ele>596.852844</ele>
        <time>2011-04-11T20:56:48Z</time>
      </trkpt>
      <trkpt lat="45.05462" lon="3.55133">
        <ele>598.39917</ele>
        <time>2011-04-11T20:56:48Z</time>
      </trkpt>
      <trkpt lat="45.0546" lon="3.55146">
        <ele>598.76416</ele>
        <time>2011-04-11T20:56:48Z</time>
      </trkpt>
      <trkpt lat="45.05465" lon="3.55156">
        <ele>598.606384</ele>
        <time>2011-04-11T20:56:48Z</time>
      </trkpt>
      <trkpt lat="45.05478" lon="3.55158">
        <ele>598.194641</ele>
        <time>2011-04-11T20:56:48Z</time>
      </trkpt>
      <trkpt lat="45.055" lon="3.55152">
        <ele>597.160645</ele>
        <time>2011-04-11T20:56:48Z</time>
      </trkpt>
      <trkpt lat="45.05549" lon="3.55134">
        <ele>593.414917</ele>
        <time>2011-04-11T20:56:48Z</time>
      </trkpt>
      <trkpt lat="45.05561" lon="3.55131">
        <ele>592.566345</ele>
        <time>2011-04-11T20:56:48Z</time>
      </trkpt>
      <trkpt lat="45.05579" lon="3.55127">
        <ele>591.458313</ele>
        <time>2011-04-11T20:56:48Z</time>
      </trkpt>
      <trkpt lat="45.05611" lon="3.55113">
        <ele>588.81311</ele>
        <time>2011-07-02T04:26:19Z</time>
      </trkpt>
      <trkpt lat="45.0568" lon="3.55073">
        <ele>579.993347</ele>
        <time>2012-01-30T11:52:24Z</time>
      </trkpt>
      <trkpt lat="45.05691" lon="3.55071">
        <ele>578.842163</ele>
        <time>2011-09-21T17:07:38Z</time>
      </trkpt>
      <trkpt lat="45.057" lon="3.55076">
        <ele>578.549988</ele>
        <time>2011-04-11T20:56:48Z</time>
      </trkpt>
      <trkpt lat="45.05708" lon="3.55098">
        <ele>580.090027</ele>
        <time>2011-04-11T20:56:48Z</time>
      </trkpt>
      <trkpt lat="45.05712" lon="3.55136">
        <ele>583.805542</ele>
        <time>2011-04-11T20:56:48Z</time>
      </trkpt>
      <trkpt lat="45.05711" lon="3.55191">
        <ele>590.199402</ele>
        <time>2011-04-11T20:56:48Z</time>
      </trkpt>
      <trkpt lat="45.05689" lon="3.55244">
        <ele>598.806946</ele>
        <time>2011-04-11T20:56:48Z</time>
      </trkpt>
      <trkpt lat="45.0569" lon="3.5526">
        <ele>599.743103</ele>
        <time>2011-04-11T20:56:48Z</time>
      </trkpt>
      <trkpt lat="45.05688" lon="3.5528">
        <ele>601.24115</ele>
        <time>2011-04-11T20:56:48Z</time>
      </trkpt>
      <trkpt lat="45.05672" lon="3.55335">
        <ele>605.841614</ele>
        <time>2012-01-30T11:52:24Z</time>
      </trkpt>
      <trkpt lat="45.05666" lon="3.55377">
        <ele>608.304871</ele>
        <time>2012-01-30T11:52:24Z</time>
      </trkpt>
      <trkpt lat="45.05659" lon="3.55404">
        <ele>610.341187</ele>
        <time>2012-01-30T11:52:24Z</time>
      </trkpt>
      <trkpt lat="45.0564" lon="3.55434">
        <ele>614.787354</ele>
        <time>2011-04-11T20:56:48Z</time>
      </trkpt>
      <trkpt lat="45.05638" lon="3.55445">
        <ele>615.539063</ele>
        <time>2011-04-11T20:56:48Z</time>
      </trkpt>
      <trkpt lat="45.05639" lon="3.55455">
        <ele>615.355835</ele>
        <time>2011-04-11T20:56:48Z</time>
      </trkpt>
      <trkpt lat="45.05653" lon="3.55481">
        <ele>613.133484</ele>
        <time>2011-04-11T20:56:48Z</time>
      </trkpt>
      <trkpt lat="45.05671" lon="3.55538">
        <ele>613.71051</ele>
        <time>2011-04-11T20:56:48Z</time>
      </trkpt>
      <trkpt lat="45.05682" lon="3.55551">
        <ele>613.951355</ele>
        <time>2011-04-11T20:56:48Z</time>
      </trkpt>
      <trkpt lat="45.05702" lon="3.55555">
        <ele>613.661743</ele>
        <time>2011-04-11T20:56:48Z</time>
      </trkpt>
      <trkpt lat="45.05733" lon="3.55547">
        <ele>612.314392</ele>
        <time>2011-04-11T20:56:48Z</time>
      </trkpt>
      <trkpt lat="45.05751" lon="3.55525">
        <ele>608.756653</ele>
        <time>2011-04-11T20:56:48Z</time>
      </trkpt>
      <trkpt lat="45.05777" lon="3.55509">
        <ele>606.246033</ele>
        <time>2011-04-11T20:56:48Z</time>
      </trkpt>
      <trkpt lat="45.05793" lon="3.55504">
        <ele>605.449158</ele>
        <time>2011-04-11T20:56:48Z</time>
      </trkpt>
      <trkpt lat="45.05812" lon="3.55505">
        <ele>604.965271</ele>
        <time>2011-04-11T20:56:48Z</time>
      </trkpt>
      <trkpt lat="45.05841" lon="3.55517">
        <ele>605.285156</ele>
        <time>2011-04-11T20:56:48Z</time>
      </trkpt>
      <trkpt lat="45.05856" lon="3.55523">
        <ele>605.599915</ele>
        <time>2011-04-11T20:56:48Z</time>
      </trkpt>
      <trkpt lat="45.05882" lon="3.55523">
        <ele>605.578186</ele>
        <time>2011-04-11T20:56:48Z</time>
      </trkpt>
      <trkpt lat="45.05912" lon="3.55503">
        <ele>605.028564</ele>
        <time>2011-04-11T20:56:48Z</time>
      </trkpt>
      <trkpt lat="45.05964" lon="3.55445">
        <ele>604.392517</ele>
        <time>2011-04-11T20:56:48Z</time>
      </trkpt>
      <trkpt lat="45.05985" lon="3.55406">
        <ele>603.693787</ele>
        <time>2011-04-11T20:56:48Z</time>
      </trkpt>
      <trkpt lat="45.0601" lon="3.55364">
        <ele>603.299988</ele>
        <time>2011-04-11T20:56:48Z</time>
      </trkpt>
      <trkpt lat="45.06013" lon="3.55369">
        <ele>603.737488</ele>
        <time>2011-04-11T20:56:48Z</time>
      </trkpt>
      <trkpt lat="45.0603" lon="3.55345">
        <ele>602.515015</ele>
        <time>2011-04-11T20:56:48Z</time>
      </trkpt>
      <trkpt lat="45.0612" lon="3.5546">
        <ele>611.335449</ele>
        <time>2011-04-11T20:56:48Z</time>
      </trkpt>
      <trkpt lat="45.06145" lon="3.55492">
        <ele>614.817505</ele>
        <time>2011-04-11T20:56:48Z</time>
      </trkpt>
      <trkpt lat="45.06137" lon="3.55525">
        <ele>614.71582</ele>
        <time>2011-04-11T20:56:48Z</time>
      </trkpt>
      <trkpt lat="45.06133" lon="3.55545">
        <ele>614.758606</ele>
        <time>2011-04-11T20:56:48Z</time>
      </trkpt>
      <trkpt lat="45.06139" lon="3.5557">
        <ele>615.767273</ele>
        <time>2011-04-11T20:56:48Z</time>
      </trkpt>
      <trkpt lat="45.06144" lon="3.5559">
        <ele>616.563538</ele>
        <time>2011-04-11T20:56:48Z</time>
      </trkpt>
      <trkpt lat="45.06141" lon="3.55621">
        <ele>616.794067</ele>
        <time>2011-04-11T20:56:48Z</time>
      </trkpt>
      <trkpt lat="45.06135" lon="3.55666">
        <ele>616.017578</ele>
        <time>2011-04-11T20:56:48Z</time>
      </trkpt>
      <trkpt lat="45.06132" lon="3.55801">
        <ele>620.73999</ele>
        <time>2011-04-11T20:56:48Z</time>
      </trkpt>
      <trkpt lat="45.06125" lon="3.55838">
        <ele>623.75647</ele>
        <time>2011-04-11T20:56:48Z</time>
      </trkpt>
      <trkpt lat="45.06115" lon="3.55883">
        <ele>627.461121</ele>
        <time>2011-04-11T20:56:48Z</time>
      </trkpt>
      <trkpt lat="45.06105" lon="3.55916">
        <ele>629.35968</ele>
        <time>2011-04-11T20:56:48Z</time>
      </trkpt>
      <trkpt lat="45.06096" lon="3.55939">
        <ele>630.601868</ele>
        <time>2011-04-11T20:56:48Z</time>
      </trkpt>
      <trkpt lat="45.06078" lon="3.55966">
        <ele>632.042542</ele>
        <time>2011-04-11T20:56:48Z</time>
      </trkpt>
      <trkpt lat="45.06063" lon="3.55997">
        <ele>633.625183</ele>
        <time>2011-04-11T20:56:48Z</time>
      </trkpt>
      <trkpt lat="45.06059" lon="3.56012">
        <ele>634.220642</ele>
        <time>2011-04-11T20:56:48Z</time>
      </trkpt>
      <trkpt lat="45.06058" lon="3.5604">
        <ele>634.611328</ele>
        <time>2011-04-11T20:56:48Z</time>
      </trkpt>
      <trkpt lat="45.06045" lon="3.56082">
        <ele>636.710022</ele>
        <time>2011-04-11T20:56:48Z</time>
      </trkpt>
      <trkpt lat="45.06042" lon="3.56102">
        <ele>638.36145</ele>
        <time>2011-04-11T20:56:48Z</time>
      </trkpt>
      <trkpt lat="45.06043" lon="3.56121">
        <ele>639.499207</ele>
        <time>2011-04-11T20:56:48Z</time>
      </trkpt>
      <trkpt lat="45.06051" lon="3.56171">
        <ele>644.525513</ele>
        <time>2011-04-11T20:56:48Z</time>
      </trkpt>
      <trkpt lat="45.06055" lon="3.56221">
        <ele>649.892395</ele>
        <time>2011-04-11T20:56:48Z</time>
      </trkpt>
      <trkpt lat="45.06059" lon="3.56251">
        <ele>651.394287</ele>
        <time>2011-04-11T20:56:48Z</time>
      </trkpt>
      <trkpt lat="45.0606" lon="3.56276">
        <ele>651.959106</ele>
        <time>2011-04-11T20:56:48Z</time>
      </trkpt>
      <trkpt lat="45.06056" lon="3.56291">
        <ele>652.484192</ele>
        <time>2011-04-11T20:56:48Z</time>
      </trkpt>
      <trkpt lat="45.06044" lon="3.56305">
        <ele>654.663208</ele>
        <time>2011-04-11T20:56:48Z</time>
      </trkpt>
      <trkpt lat="45.06025" lon="3.56311">
        <ele>657.309204</ele>
        <time>2011-04-11T20:56:48Z</time>
      </trkpt>
      <trkpt lat="45.06023" lon="3.56329">
        <ele>657.047119</ele>
        <time>2011-04-11T20:56:48Z</time>
      </trkpt>
      <trkpt lat="45.0602" lon="3.56357">
        <ele>654.049377</ele>
        <time>2011-04-11T20:56:48Z</time>
      </trkpt>
      <trkpt lat="45.06004" lon="3.56409">
        <ele>651.647949</ele>
        <time>2011-04-11T20:56:48Z</time>
      </trkpt>
      <trkpt lat="45.05977" lon="3.56427">
        <ele>654.134094</ele>
        <time>2011-04-11T20:56:48Z</time>
      </trkpt>
      <trkpt lat="45.05946" lon="3.56443">
        <ele>655.921265</ele>
        <time>2011-04-11T20:56:48Z</time>
      </trkpt>
      <trkpt lat="45.0592" lon="3.5644">
        <ele>658.252808</ele>
        <time>2011-04-11T20:56:48Z</time>
      </trkpt>
      <trkpt lat="45.05899" lon="3.56438">
        <ele>660.231689</ele>
        <time>2011-04-11T20:56:48Z</time>
      </trkpt>
      <trkpt lat="45.05883" lon="3.56442">
        <ele>660.377563</ele>
        <time>2011-04-11T20:56:48Z</time>
      </trkpt>
      <trkpt lat="45.05862" lon="3.56452">
        <ele>659.602905</ele>
        <time>2011-04-11T20:56:48Z</time>
      </trkpt>
      <trkpt lat="45.05842" lon="3.56463">
        <ele>658.085632</ele>
        <time>2011-04-11T20:56:48Z</time>
      </trkpt>
      <trkpt lat="45.05832" lon="3.56468">
        <ele>657.336182</ele>
        <time>2011-04-11T20:56:48Z</time>
      </trkpt>
      <trkpt lat="45.05811" lon="3.56475">
        <ele>657.778564</ele>
        <time>2011-04-11T20:56:48Z</time>
      </trkpt>
      <trkpt lat="45.05801" lon="3.56478">
        <ele>658.908447</ele>
        <time>2011-04-11T20:56:48Z</time>
      </trkpt>
      <trkpt lat="45.05792" lon="3.56485">
        <ele>659.377502</ele>
        <time>2011-04-11T20:56:48Z</time>
      </trkpt>
      <trkpt lat="45.05771" lon="3.56507">
        <ele>661.019348</ele>
        <time>2011-04-11T20:56:48Z</time>
      </trkpt>
      <trkpt lat="45.0574" lon="3.56534">
        <ele>669.399414</ele>
        <time>2011-04-11T20:56:48Z</time>
      </trkpt>
      <trkpt lat="45.05716" lon="3.56568">
        <ele>676.744995</ele>
        <time>2011-04-11T20:56:48Z</time>
      </trkpt>
      <trkpt lat="45.05671" lon="3.56653">
        <ele>680.457336</ele>
        <time>2011-04-11T20:56:48Z</time>
      </trkpt>
      <trkpt lat="45.0566" lon="3.56661">
        <ele>682.08728</ele>
        <time>2011-04-11T20:56:48Z</time>
      </trkpt>
      <trkpt lat="45.05646" lon="3.56675">
        <ele>683.37616</ele>
        <time>2011-04-11T20:56:48Z</time>
      </trkpt>
      <trkpt lat="45.0563" lon="3.56696">
        <ele>684.149414</ele>
        <time>2011-04-11T20:56:48Z</time>
      </trkpt>
      <trkpt lat="45.05611" lon="3.56734">
        <ele>683.010071</ele>
        <time>2011-04-11T20:56:48Z</time>
      </trkpt>
      <trkpt lat="45.05587" lon="3.5677">
        <ele>683.357483</ele>
        <time>2011-04-11T20:56:48Z</time>
      </trkpt>
      <trkpt lat="45.05576" lon="3.56784">
        <ele>681.683105</ele>
        <time>2011-04-11T20:56:48Z</time>
      </trkpt>
      <trkpt lat="45.05566" lon="3.5679">
        <ele>682.054626</ele>
        <time>2011-04-11T20:56:48Z</time>
      </trkpt>
      <trkpt lat="45.05504" lon="3.56824">
        <ele>688.628418</ele>
        <time>2011-04-11T20:56:48Z</time>
      </trkpt>
      <trkpt lat="45.055" lon="3.56844">
        <ele>688.551636</ele>
        <time>2011-04-11T20:56:48Z</time>
      </trkpt>
      <trkpt lat="45.05511" lon="3.5689">
        <ele>682.590027</ele>
        <time>2011-04-11T20:56:48Z</time>
      </trkpt>
      <trkpt lat="45.05517" lon="3.56921">
        <ele>681.633728</ele>
        <time>2011-04-11T20:56:48Z</time>
      </trkpt>
      <trkpt lat="45.0552" lon="3.56968">
        <ele>682.894226</ele>
        <time>2011-04-11T20:56:48Z</time>
      </trkpt>
      <trkpt lat="45.05529" lon="3.57015">
        <ele>681.873779</ele>
        <time>2011-04-11T20:56:48Z</time>
      </trkpt>
      <trkpt lat="45.05533" lon="3.57048">
        <ele>681.67688</ele>
        <time>2011-04-11T20:56:48Z</time>
      </trkpt>
      <trkpt lat="45.05537" lon="3.57083">
        <ele>681.948242</ele>
        <time>2011-04-11T20:56:48Z</time>
      </trkpt>
      <trkpt lat="45.05538" lon="3.57144">
        <ele>682.948608</ele>
        <time>2011-04-11T20:56:48Z</time>
      </trkpt>
      <trkpt lat="45.0554" lon="3.57177">
        <ele>683.13501</ele>
        <time>2011-04-11T20:56:48Z</time>
      </trkpt>
      <trkpt lat="45.0554" lon="3.57214">
        <ele>683.932861</ele>
        <time>2011-04-11T20:56:48Z</time>
      </trkpt>
      <trkpt lat="45.05543" lon="3.57248">
        <ele>683.698853</ele>
        <time>2011-04-11T20:56:48Z</time>
      </trkpt>
      <trkpt lat="45.05544" lon="3.57292">
        <ele>684.372986</ele>
        <time>2011-04-11T20:56:48Z</time>
      </trkpt>
      <trkpt lat="45.0554" lon="3.57323">
        <ele>686.300293</ele>
        <time>2011-04-11T20:56:48Z</time>
      </trkpt>
      <trkpt lat="45.05525" lon="3.57388">
        <ele>688.931274</ele>
        <time>2011-04-11T20:56:48Z</time>
      </trkpt>
      <trkpt lat="45.05504" lon="3.57431">
        <ele>693.383728</ele>
        <time>2011-04-11T20:56:48Z</time>
      </trkpt>
      <trkpt lat="45.05486" lon="3.57484">
        <ele>695.825745</ele>
        <time>2011-04-11T20:56:48Z</time>
      </trkpt>
      <trkpt lat="45.05467" lon="3.57519">
        <ele>698.070801</ele>
        <time>2011-04-11T20:56:48Z</time>
      </trkpt>
      <trkpt lat="45.05449" lon="3.57543">
        <ele>698.854858</ele>
        <time>2011-04-11T20:56:48Z</time>
      </trkpt>
      <trkpt lat="45.05364" lon="3.57614">
        <ele>701.442505</ele>
        <time>2011-04-11T20:56:48Z</time>
      </trkpt>
      <trkpt lat="45.05324" lon="3.5763">
        <ele>700.256653</ele>
        <time>2011-04-11T20:56:48Z</time>
      </trkpt>
      <trkpt lat="45.05307" lon="3.5763">
        <ele>701.511047</ele>
        <time>2011-04-11T20:56:48Z</time>
      </trkpt>
      <trkpt lat="45.05297" lon="3.57629">
        <ele>701.594604</ele>
        <time>2011-04-11T20:56:48Z</time>
      </trkpt>
      <trkpt lat="45.0529" lon="3.57627">
        <ele>702.600098</ele>
        <time>2011-04-11T20:56:48Z</time>
      </trkpt>
      <trkpt lat="45.05278" lon="3.57622">
        <ele>704.480225</ele>
        <time>2011-04-11T20:56:48Z</time>
      </trkpt>
      <trkpt lat="45.05258" lon="3.57616">
        <ele>706.94397</ele>
        <time>2011-04-11T20:56:48Z</time>
      </trkpt>
      <trkpt lat="45.05239" lon="3.57618">
        <ele>706.055359</ele>
        <time>2011-04-11T20:56:48Z</time>
      </trkpt>
      <trkpt lat="45.05179" lon="3.57631">
        <ele>699.818787</ele>
        <time>2011-04-11T20:56:48Z</time>
      </trkpt>
      <trkpt lat="45.05165" lon="3.57634">
        <ele>697.943237</ele>
        <time>2011-04-11T20:56:48Z</time>
      </trkpt>
      <trkpt lat="45.05146" lon="3.5763">
        <ele>699.065796</ele>
        <time>2011-04-11T20:56:48Z</time>
      </trkpt>
      <trkpt lat="45.05127" lon="3.57637">
        <ele>695.540833</ele>
        <time>2011-04-11T20:56:48Z</time>
      </trkpt>
      <trkpt lat="45.05082" lon="3.5764">
        <ele>694.04718</ele>
        <time>2011-04-11T20:56:48Z</time>
      </trkpt>
      <trkpt lat="45.05064" lon="3.57648">
        <ele>694.542603</ele>
        <time>2011-04-11T20:56:48Z</time>
      </trkpt>
      <trkpt lat="45.05049" lon="3.57675">
        <ele>688.370911</ele>
        <time>2011-04-11T20:56:48Z</time>
      </trkpt>
      <trkpt lat="45.05039" lon="3.57696">
        <ele>683.842529</ele>
        <time>2011-04-11T20:56:48Z</time>
      </trkpt>
      <trkpt lat="45.05032" lon="3.57705">
        <ele>681.67804</ele>
        <time>2011-04-11T20:56:48Z</time>
      </trkpt>
      <trkpt lat="45.05003" lon="3.57722">
        <ele>678.452271</ele>
        <time>2011-04-11T20:56:48Z</time>
      </trkpt>
      <trkpt lat="45.04995" lon="3.5773">
        <ele>675.208374</ele>
        <time>2011-04-11T20:56:48Z</time>
      </trkpt>
      <trkpt lat="45.04978" lon="3.57737">
        <ele>673.137695</ele>
        <time>2011-04-11T20:56:48Z</time>
      </trkpt>
      <trkpt lat="45.04945" lon="3.57744">
        <ele>672.776062</ele>
        <time>2011-04-11T20:56:48Z</time>
      </trkpt>
      <trkpt lat="45.04924" lon="3.57753">
        <ele>673.283447</ele>
        <time>2011-04-11T20:56:48Z</time>
      </trkpt>
      <trkpt lat="45.04908" lon="3.57768">
        <ele>670.140442</ele>
        <time>2011-04-11T20:56:48Z</time>
      </trkpt>
      <trkpt lat="45.04893" lon="3.57785">
        <ele>667.28949</ele>
        <time>2011-04-11T20:56:48Z</time>
      </trkpt>
      <trkpt lat="45.04885" lon="3.57803">
        <ele>661.246643</ele>
        <time>2011-04-11T20:56:48Z</time>
      </trkpt>
      <trkpt lat="45.04877" lon="3.57821">
        <ele>655.906067</ele>
        <time>2011-04-11T20:56:48Z</time>
      </trkpt>
      <trkpt lat="45.0486" lon="3.57837">
        <ele>654</ele>
        <time>2011-04-11T20:56:48Z</time>
      </trkpt>
      <trkpt lat="45.04821" lon="3.5786">
        <ele>649.833496</ele>
        <time>2011-04-11T20:56:48Z</time>
      </trkpt>
      <trkpt lat="45.048" lon="3.5788">
        <ele>645.91095</ele>
        <time>2011-04-11T20:56:48Z</time>
      </trkpt>
      <trkpt lat="45.04775" lon="3.5791">
        <ele>641.085022</ele>
        <time>2011-04-11T20:56:48Z</time>
      </trkpt>
      <trkpt lat="45.0475" lon="3.57954">
        <ele>634.661804</ele>
        <time>2011-04-11T20:56:48Z</time>
      </trkpt>
      <trkpt lat="45.04723" lon="3.57998">
        <ele>628.995117</ele>
        <time>2011-04-11T20:56:48Z</time>
      </trkpt>
      <trkpt lat="45.04719" lon="3.5801">
        <ele>626.224792</ele>
        <time>2011-04-11T20:56:48Z</time>
      </trkpt>
      <trkpt lat="45.04705" lon="3.58031">
        <ele>621.863708</ele>
        <time>2011-04-11T20:56:48Z</time>
      </trkpt>
      <trkpt lat="45.04685" lon="3.58056">
        <ele>617.945618</ele>
        <time>2011-04-11T20:56:48Z</time>
      </trkpt>
      <trkpt lat="45.0467" lon="3.58082">
        <ele>612.392578</ele>
        <time>2011-04-11T20:56:48Z</time>
      </trkpt>
      <trkpt lat="45.04653" lon="3.58124">
        <ele>604.591064</ele>
        <time>2011-04-11T20:56:48Z</time>
      </trkpt>
      <trkpt lat="45.04659" lon="3.58135">
        <ele>603.577148</ele>
        <time>2011-04-11T20:56:48Z</time>
      </trkpt>
      <trkpt lat="45.04669" lon="3.5814">
        <ele>603.555176</ele>
        <time>2011-04-11T20:56:48Z</time>
      </trkpt>
      <trkpt lat="45.04679" lon="3.58134">
        <ele>603.200562</ele>
        <time>2011-04-11T20:56:48Z</time>
      </trkpt>
      <trkpt lat="45.04686" lon="3.58126">
        <ele>601.107971</ele>
        <time>2011-04-11T20:56:48Z</time>
      </trkpt>
      <trkpt lat="45.0469" lon="3.5811">
        <ele>602.636353</ele>
        <time>2011-04-11T20:56:48Z</time>
      </trkpt>
      <trkpt lat="45.04705" lon="3.5809">
        <ele>601.578918</ele>
        <time>2011-04-11T20:56:48Z</time>
      </trkpt>
      <trkpt lat="45.04716" lon="3.58083">
        <ele>600.001282</ele>
        <time>2011-04-11T20:56:48Z</time>
      </trkpt>
      <trkpt lat="45.04734" lon="3.58076">
        <ele>595.440369</ele>
        <time>2011-04-11T20:56:48Z</time>
      </trkpt>
      <trkpt lat="45.04742" lon="3.58071">
        <ele>594.123474</ele>
        <time>2011-04-11T20:56:48Z</time>
      </trkpt>
      <trkpt lat="45.04758" lon="3.58066">
        <ele>590.151672</ele>
        <time>2011-04-11T20:56:48Z</time>
      </trkpt>
      <trkpt lat="45.04761" lon="3.58063">
        <ele>590.001709</ele>
        <time>2011-04-11T20:56:48Z</time>
      </trkpt>
      <trkpt lat="45.04764" lon="3.58066">
        <ele>587.886047</ele>
        <time>2011-04-11T20:56:48Z</time>
      </trkpt>
      <trkpt lat="45.04763" lon="3.58071">
        <ele>586.728516</ele>
        <time>2011-04-11T20:56:48Z</time>
      </trkpt>
      <trkpt lat="45.04757" lon="3.58082">
        <ele>585.102783</ele>
        <time>2011-04-11T20:56:48Z</time>
      </trkpt>
      <trkpt lat="45.04748" lon="3.58097">
        <ele>583.664856</ele>
        <time>2011-04-11T20:56:48Z</time>
      </trkpt>
      <trkpt lat="45.04742" lon="3.58103">
        <ele>584.16748</ele>
        <time>2011-04-11T20:56:48Z</time>
      </trkpt>
      <trkpt lat="45.04718" lon="3.58131">
        <ele>584.817139</ele>
        <time>2011-04-11T20:56:48Z</time>
      </trkpt>
      <trkpt lat="45.04714" lon="3.5814">
        <ele>584.164063</ele>
        <time>2011-04-11T20:56:48Z</time>
      </trkpt>
      <trkpt lat="45.04702" lon="3.58161">
        <ele>582.765137</ele>
        <time>2011-04-11T20:56:48Z</time>
      </trkpt>
      <trkpt lat="45.04695" lon="3.58176">
        <ele>581.223572</ele>
        <time>2011-04-11T20:56:48Z</time>
      </trkpt>
      <trkpt lat="45.04694" lon="3.58182">
        <ele>579.450684</ele>
        <time>2011-04-11T20:56:48Z</time>
      </trkpt>
      <trkpt lat="45.04702" lon="3.58179">
        <ele>576.230713</ele>
        <time>2011-04-11T20:56:48Z</time>
      </trkpt>
      <trkpt lat="45.04722" lon="3.58162">
        <ele>572.61261</ele>
        <time>2011-04-11T20:56:48Z</time>
      </trkpt>
      <trkpt lat="45.04736" lon="3.58154">
        <ele>569.8974</ele>
        <time>2011-04-11T20:56:48Z</time>
      </trkpt>
      <trkpt lat="45.04744" lon="3.58148">
        <ele>569.117432</ele>
        <time>2011-04-11T20:56:48Z</time>
      </trkpt>
      <trkpt lat="45.04749" lon="3.58146">
        <ele>568.058533</ele>
        <time>2011-04-11T20:56:48Z</time>
      </trkpt>
      <trkpt lat="45.04751" lon="3.58151">
        <ele>565.533569</ele>
        <time>2011-04-11T20:56:48Z</time>
      </trkpt>
      <trkpt lat="45.04748" lon="3.58159">
        <ele>564.236633</ele>
        <time>2011-04-11T20:56:48Z</time>
      </trkpt>
      <trkpt lat="45.04705" lon="3.58218">
        <ele>562.348083</ele>
        <time>2011-04-11T20:56:48Z</time>
      </trkpt>
      <trkpt lat="45.04704" lon="3.58233">
        <ele>558.60498</ele>
        <time>2011-04-11T20:56:48Z</time>
      </trkpt>
      <trkpt lat="45.04705" lon="3.58254">
        <ele>552.47229</ele>
        <time>2011-04-11T20:56:48Z</time>
      </trkpt>
      <trkpt lat="45.04701" lon="3.58273">
        <ele>549.89325</ele>
        <time>2011-04-11T20:56:48Z</time>
      </trkpt>
      <trkpt lat="45.04699" lon="3.58305">
        <ele>546.200012</ele>
        <time>2011-04-11T20:56:48Z</time>
      </trkpt>
      <trkpt lat="45.047" lon="3.58319">
        <ele>544.141846</ele>
        <time>2011-04-11T20:56:48Z</time>
      </trkpt>
      <trkpt lat="45.04699" lon="3.58337">
        <ele>542.007507</ele>
        <time>2011-04-11T20:56:48Z</time>
      </trkpt>
      <trkpt lat="45.04695" lon="3.58361">
        <ele>539.298767</ele>
        <time>2011-04-11T20:56:48Z</time>
      </trkpt>
      <trkpt lat="45.04694" lon="3.58371">
        <ele>538.01123</ele>
        <time>2011-04-11T20:56:48Z</time>
      </trkpt>
      <trkpt lat="45.04697" lon="3.58384">
        <ele>535.607483</ele>
        <time>2011-09-05T17:20:45Z</time>
      </trkpt>
      <trkpt lat="45.04704" lon="3.58393">
        <ele>533.151794</ele>
        <time>2012-01-30T11:52:24Z</time>
      </trkpt>
      <trkpt lat="45.0471" lon="3.58389">
        <ele>532.61499</ele>
        <time>2012-01-30T11:52:24Z</time>
      </trkpt>
      <trkpt lat="45.04713" lon="3.58375">
        <ele>533.945007</ele>
        <time>2011-11-21T10:52:29Z</time>
      </trkpt>
      <trkpt lat="45.04722" lon="3.58331">
        <ele>538.223511</ele>
        <time>2011-04-11T20:56:48Z</time>
      </trkpt>
      <trkpt lat="45.04737" lon="3.58303">
        <ele>537.816406</ele>
        <time>2011-04-11T20:56:48Z</time>
      </trkpt>
      <trkpt lat="45.0475" lon="3.58301">
        <ele>535.052551</ele>
        <time>2011-04-11T20:56:48Z</time>
      </trkpt>
      <trkpt lat="45.04764" lon="3.58308">
        <ele>530.761719</ele>
        <time>2011-04-11T20:56:48Z</time>
      </trkpt>
      <trkpt lat="45.04849" lon="3.58364">
        <ele>542.149719</ele>
        <time>2011-04-11T20:56:48Z</time>
      </trkpt>
      <trkpt lat="45.04847" lon="3.58378">
        <ele>543.678101</ele>
        <time>2011-04-11T20:56:48Z</time>
      </trkpt>
      <trkpt lat="45.04838" lon="3.58393">
        <ele>542.160278</ele>
        <time>2011-04-11T20:56:48Z</time>
      </trkpt>
      <trkpt lat="45.04826" lon="3.58424">
        <ele>540.767517</ele>
        <time>2011-04-11T20:56:48Z</time>
      </trkpt>
      <trkpt lat="45.04818" lon="3.58451">
        <ele>538.922607</ele>
        <time>2011-04-11T20:56:48Z</time>
      </trkpt>
      <trkpt lat="45.04804" lon="3.58482">
        <ele>536.216003</ele>
        <time>2011-04-11T20:56:48Z</time>
      </trkpt>
      <trkpt lat="45.04801" lon="3.58502">
        <ele>539.706177</ele>
        <time>2011-04-11T20:56:48Z</time>
      </trkpt>
      <trkpt lat="45.048" lon="3.58522">
        <ele>543.542114</ele>
        <time>2011-04-11T20:56:48Z</time>
      </trkpt>
      <trkpt lat="45.04796" lon="3.5854">
        <ele>544.871887</ele>
        <time>2011-04-11T20:56:48Z</time>
      </trkpt>
      <trkpt lat="45.04786" lon="3.58579">
        <ele>545.120239</ele>
        <time>2011-04-11T20:56:48Z</time>
      </trkpt>
      <trkpt lat="45.0478" lon="3.58613">
        <ele>547.827332</ele>
        <time>2011-04-11T20:56:48Z</time>
      </trkpt>
      <trkpt lat="45.04773" lon="3.58639">
        <ele>547.859619</ele>
        <time>2011-04-11T20:56:48Z</time>
      </trkpt>
      <trkpt lat="45.04765" lon="3.58661">
        <ele>545.844971</ele>
        <time>2011-04-11T20:56:48Z</time>
      </trkpt>
      <trkpt lat="45.04751" lon="3.58704">
        <ele>545.765564</ele>
        <time>2011-04-11T20:56:48Z</time>
      </trkpt>
      <trkpt lat="45.0474" lon="3.58746">
        <ele>547.00238</ele>
        <time>2011-04-11T20:56:48Z</time>
      </trkpt>
      <trkpt lat="45.04737" lon="3.5876">
        <ele>547.139038</ele>
        <time>2011-04-11T20:56:48Z</time>
      </trkpt>
      <trkpt lat="45.04735" lon="3.58775">
        <ele>548.646545</ele>
        <time>2011-04-11T20:56:48Z</time>
      </trkpt>
      <trkpt lat="45.04728" lon="3.58797">
        <ele>547.168335</ele>
        <time>2011-04-11T20:56:48Z</time>
      </trkpt>
      <trkpt lat="45.04722" lon="3.58816">
        <ele>546.125916</ele>
        <time>2011-04-11T20:56:48Z</time>
      </trkpt>
      <trkpt lat="45.04717" lon="3.58834">
        <ele>545.119995</ele>
        <time>2011-04-11T20:56:48Z</time>
      </trkpt>
      <trkpt lat="45.0471" lon="3.58854">
        <ele>543.824097</ele>
        <time>2011-04-11T20:56:48Z</time>
      </trkpt>
      <trkpt lat="45.04701" lon="3.58891">
        <ele>545.056335</ele>
        <time>2011-04-11T20:56:48Z</time>
      </trkpt>
      <trkpt lat="45.04695" lon="3.58926">
        <ele>546.463623</ele>
        <time>2011-04-11T20:56:48Z</time>
      </trkpt>
      <trkpt lat="45.04688" lon="3.5896">
        <ele>546.847351</ele>
        <time>2011-04-11T20:56:48Z</time>
      </trkpt>
      <trkpt lat="45.04684" lon="3.58967">
        <ele>545.962341</ele>
        <time>2011-04-11T20:56:48Z</time>
      </trkpt>
      <trkpt lat="45.04669" lon="3.59001">
        <ele>544.585693</ele>
        <time>2011-04-11T20:56:48Z</time>
      </trkpt>
      <trkpt lat="45.04664" lon="3.59014">
        <ele>544.385254</ele>
        <time>2011-04-11T20:56:48Z</time>
      </trkpt>
      <trkpt lat="45.04648" lon="3.59057">
        <ele>545.669861</ele>
        <time>2011-04-11T20:56:48Z</time>
      </trkpt>
      <trkpt lat="45.04637" lon="3.59076">
        <ele>544.89801</ele>
        <time>2011-04-11T20:56:48Z</time>
      </trkpt>
      <trkpt lat="45.04628" lon="3.59087">
        <ele>543.951294</ele>
        <time>2011-04-11T20:56:48Z</time>
      </trkpt>
      <trkpt lat="45.04616" lon="3.59094">
        <ele>542.291016</ele>
        <time>2011-04-11T20:56:48Z</time>
      </trkpt>
      <trkpt lat="45.04596" lon="3.59101">
        <ele>540.09375</ele>
        <time>2011-04-11T20:56:48Z</time>
      </trkpt>
      <trkpt lat="45.0458" lon="3.59117">
        <ele>539.380432</ele>
        <time>2011-04-11T20:56:48Z</time>
      </trkpt>
      <trkpt lat="45.04505" lon="3.59176">
        <ele>539.01001</ele>
        <time>2012-01-30T11:52:24Z</time>
      </trkpt>
      <trkpt lat="45.04469" lon="3.59216">
        <ele>541.129456</ele>
        <time>2012-01-30T11:52:24Z</time>
      </trkpt>
      <trkpt lat="45.04451" lon="3.59223">
        <ele>541.78595</ele>
        <time>2011-04-11T20:56:48Z</time>
      </trkpt>
      <trkpt lat="45.04437" lon="3.59235">
        <ele>545.299011</ele>
        <time>2011-04-11T20:56:48Z</time>
      </trkpt>
      <trkpt lat="45.04423" lon="3.59256">
        <ele>551.824097</ele>
        <time>2011-04-11T20:56:48Z</time>
      </trkpt>
      <trkpt lat="45.04415" lon="3.59262">
        <ele>551.541504</ele>
        <time>2011-04-11T20:56:48Z</time>
      </trkpt>
      <trkpt lat="45.04402" lon="3.5927">
        <ele>550.56488</ele>
        <time>2011-04-11T20:56:48Z</time>
      </trkpt>
      <trkpt lat="45.04374" lon="3.59287">
        <ele>555.940674</ele>
        <time>2011-04-11T20:56:48Z</time>
      </trkpt>
      <trkpt lat="45.04368" lon="3.59289">
        <ele>556.736206</ele>
        <time>2011-04-11T20:56:48Z</time>
      </trkpt>
      <trkpt lat="45.04351" lon="3.59291">
        <ele>557.179626</ele>
        <time>2011-04-11T20:56:48Z</time>
      </trkpt>
      <trkpt lat="45.04324" lon="3.59287">
        <ele>556.789429</ele>
        <time>2011-04-11T20:56:48Z</time>
      </trkpt>
      <trkpt lat="45.04308" lon="3.59283">
        <ele>556.111694</ele>
        <time>2011-04-11T20:56:48Z</time>
      </trkpt>
      <trkpt lat="45.04279" lon="3.59273">
        <ele>551.692627</ele>
        <time>2011-04-11T20:56:48Z</time>
      </trkpt>
      <trkpt lat="45.04231" lon="3.59258">
        <ele>549.894226</ele>
        <time>2011-04-11T20:56:48Z</time>
      </trkpt>
      <trkpt lat="45.042" lon="3.59242">
        <ele>546.18158</ele>
        <time>2011-04-11T20:56:48Z</time>
      </trkpt>
      <trkpt lat="45.0419" lon="3.59232">
        <ele>543.786011</ele>
        <time>2011-04-11T20:56:48Z</time>
      </trkpt>
      <trkpt lat="45.04181" lon="3.59206">
        <ele>539.778137</ele>
        <time>2011-04-11T20:56:48Z</time>
      </trkpt>
      <trkpt lat="45.04177" lon="3.59182">
        <ele>537.868835</ele>
        <time>2011-04-11T20:56:48Z</time>
      </trkpt>
      <trkpt lat="45.04173" lon="3.59168">
        <ele>536.951721</ele>
        <time>2011-04-11T20:56:48Z</time>
      </trkpt>
      <trkpt lat="45.04158" lon="3.59153">
        <ele>536.462341</ele>
        <time>2011-04-11T20:56:48Z</time>
      </trkpt>
      <trkpt lat="45.04138" lon="3.59138">
        <ele>536.211182</ele>
        <time>2011-04-11T20:56:48Z</time>
      </trkpt>
      <trkpt lat="45.04125" lon="3.59124">
        <ele>535.911926</ele>
        <time>2011-04-11T20:56:48Z</time>
      </trkpt>
      <trkpt lat="45.04109" lon="3.59103">
        <ele>535.908813</ele>
        <time>2011-04-11T20:56:48Z</time>
      </trkpt>
      <trkpt lat="45.04095" lon="3.59084">
        <ele>535.583008</ele>
        <time>2011-04-11T20:56:48Z</time>
      </trkpt>
      <trkpt lat="45.04075" lon="3.59058">
        <ele>534.831238</ele>
        <time>2011-04-11T20:56:48Z</time>
      </trkpt>
      <trkpt lat="45.04045" lon="3.5902">
        <ele>533.234985</ele>
        <time>2011-04-11T20:56:48Z</time>
      </trkpt>
      <trkpt lat="45.04026" lon="3.5907">
        <ele>537.83374</ele>
        <time>2011-04-11T20:56:48Z</time>
      </trkpt>
      <trkpt lat="45.04018" lon="3.59073">
        <ele>538.263733</ele>
        <time>2011-04-11T20:56:48Z</time>
      </trkpt>
      <trkpt lat="45.03981" lon="3.59057">
        <ele>538.840393</ele>
        <time>2011-04-11T20:56:48Z</time>
      </trkpt>
      <trkpt lat="45.03935" lon="3.59038">
        <ele>543.676514</ele>
        <time>2011-04-11T20:56:48Z</time>
      </trkpt>
      <trkpt lat="45.03926" lon="3.59037">
        <ele>545.39502</ele>
        <time>2011-10-10T13:51:35Z</time>
      </trkpt>
      <trkpt lat="45.03921" lon="3.5904">
        <ele>547.139221</ele>
        <time>2012-01-30T11:52:24Z</time>
      </trkpt>
      <trkpt lat="45.0392" lon="3.59051">
        <ele>549.455811</ele>
        <time>2012-01-30T11:52:24Z</time>
      </trkpt>
      <trkpt lat="45.03924" lon="3.59062">
        <ele>550.345581</ele>
        <time>2012-01-30T11:52:24Z</time>
      </trkpt>
      <trkpt lat="45.03928" lon="3.59077">
        <ele>552.302734</ele>
        <time>2012-01-30T11:52:24Z</time>
      </trkpt>
      <trkpt lat="45.03927" lon="3.59084">
        <ele>554.732544</ele>
        <time>2012-01-30T11:52:24Z</time>
      </trkpt>
      <trkpt lat="45.03924" lon="3.59087">
        <ele>556.694519</ele>
        <time>2011-04-11T20:56:48Z</time>
      </trkpt>
      <trkpt lat="45.03914" lon="3.59083">
        <ele>559.008911</ele>
        <time>2011-04-11T20:56:48Z</time>
      </trkpt>
      <trkpt lat="45.03891" lon="3.59082">
        <ele>566.876587</ele>
        <time>2011-04-11T20:56:48Z</time>
      </trkpt>
      <trkpt lat="45.03884" lon="3.5908">
        <ele>568.754089</ele>
        <time>2011-04-11T20:56:48Z</time>
      </trkpt>
      <trkpt lat="45.03793" lon="3.5903">
        <ele>581.46991</ele>
        <time>2011-04-11T20:56:48Z</time>
      </trkpt>
      <trkpt lat="45.03777" lon="3.59029">
        <ele>584.583374</ele>
        <time>2011-04-11T20:56:48Z</time>
      </trkpt>
      <trkpt lat="45.03764" lon="3.59027">
        <ele>586.751404</ele>
        <time>2011-04-11T20:56:48Z</time>
      </trkpt>
      <trkpt lat="45.03743" lon="3.59034">
        <ele>591.155579</ele>
        <time>2011-04-11T20:56:48Z</time>
      </trkpt>
      <trkpt lat="45.03729" lon="3.5903">
        <ele>590.77124</ele>
        <time>2011-04-11T20:56:48Z</time>
      </trkpt>
      <trkpt lat="45.03704" lon="3.59037">
        <ele>592.80127</ele>
        <time>2011-04-11T20:56:48Z</time>
      </trkpt>
      <trkpt lat="45.03684" lon="3.59054">
        <ele>595.000305</ele>
        <time>2011-04-11T20:56:48Z</time>
      </trkpt>
      <trkpt lat="45.0367" lon="3.59075">
        <ele>597.487488</ele>
        <time>2011-04-11T20:56:48Z</time>
      </trkpt>
      <trkpt lat="45.03664" lon="3.59092">
        <ele>600.736023</ele>
        <time>2011-04-11T20:56:48Z</time>
      </trkpt>
      <trkpt lat="45.03661" lon="3.59103">
        <ele>602.733154</ele>
        <time>2011-04-11T20:56:48Z</time>
      </trkpt>
      <trkpt lat="45.03655" lon="3.59104">
        <ele>603.198975</ele>
        <time>2011-04-11T20:56:48Z</time>
      </trkpt>
      <trkpt lat="45.03618" lon="3.59076">
        <ele>600.33252</ele>
        <time>2011-04-11T20:56:48Z</time>
      </trkpt>
      <trkpt lat="45.03599" lon="3.5906">
        <ele>599.484985</ele>
        <time>2012-01-30T11:52:24Z</time>
      </trkpt>
      <trkpt lat="45.03591" lon="3.59045">
        <ele>597.54248</ele>
        <time>2012-01-30T11:52:24Z</time>
      </trkpt>
      <trkpt lat="45.03586" lon="3.59036">
        <ele>596.414978</ele>
        <time>2012-01-30T11:52:24Z</time>
      </trkpt>
      <trkpt lat="45.03576" lon="3.59031">
        <ele>594.78302</ele>
        <time>2011-04-11T20:56:48Z</time>
      </trkpt>
      <trkpt lat="45.03564" lon="3.59051">
        <ele>596.608276</ele>
        <time>2011-04-11T20:56:48Z</time>
      </trkpt>
      <trkpt lat="45.03556" lon="3.59059">
        <ele>596.936218</ele>
        <time>2011-04-11T20:56:48Z</time>
      </trkpt>
      <trkpt lat="45.03551" lon="3.59067">
        <ele>597.337219</ele>
        <time>2011-04-11T20:56:48Z</time>
      </trkpt>
      <trkpt lat="45.03543" lon="3.59079">
        <ele>598.333191</ele>
        <time>2011-04-11T20:56:48Z</time>
      </trkpt>
      <trkpt lat="45.03534" lon="3.59099">
        <ele>599.089355</ele>
        <time>2011-04-11T20:56:48Z</time>
      </trkpt>
      <trkpt lat="45.03528" lon="3.59142">
        <ele>604.031189</ele>
        <time>2011-04-11T20:56:48Z</time>
      </trkpt>
      <trkpt lat="45.03524" lon="3.59159">
        <ele>605.989319</ele>
        <time>2011-04-11T20:56:48Z</time>
      </trkpt>
      <trkpt lat="45.03517" lon="3.59178">
        <ele>606.563232</ele>
        <time>2011-04-11T20:56:48Z</time>
      </trkpt>
      <trkpt lat="45.03466" lon="3.5927">
        <ele>613.895203</ele>
        <time>2011-04-11T20:56:48Z</time>
      </trkpt>
      <trkpt lat="45.03432" lon="3.59333">
        <ele>624.082031</ele>
        <time>2011-04-11T20:56:48Z</time>
      </trkpt>
      <trkpt lat="45.03409" lon="3.5936">
        <ele>625.950256</ele>
        <time>2011-04-11T20:56:48Z</time>
      </trkpt>
      <trkpt lat="45.03356" lon="3.59412">
        <ele>629.05896</ele>
        <time>2011-04-11T20:56:48Z</time>
      </trkpt>
      <trkpt lat="45.0332" lon="3.59448">
        <ele>633.818359</ele>
        <time>2011-04-11T20:56:48Z</time>
      </trkpt>
      <trkpt lat="45.03311" lon="3.59457">
        <ele>635.013733</ele>
        <time>2011-04-11T20:56:48Z</time>
      </trkpt>
      <trkpt lat="45.03281" lon="3.5947">
        <ele>636.097656</ele>
        <time>2011-04-11T20:56:48Z</time>
      </trkpt>
      <trkpt lat="45.03263" lon="3.59475">
        <ele>635.679077</ele>
        <time>2011-04-11T20:56:48Z</time>
      </trkpt>
      <trkpt lat="45.03247" lon="3.59474">
        <ele>636.269592</ele>
        <time>2011-04-11T20:56:48Z</time>
      </trkpt>
      <trkpt lat="45.03233" lon="3.59473">
        <ele>636.981262</ele>
        <time>2011-04-11T20:56:48Z</time>
      </trkpt>
      <trkpt lat="45.03208" lon="3.59472">
        <ele>638.337524</ele>
        <time>2011-04-11T20:56:48Z</time>
      </trkpt>
      <trkpt lat="45.03205" lon="3.59466">
        <ele>637.023743</ele>
        <time>2011-04-11T20:56:48Z</time>
      </trkpt>
      <trkpt lat="45.03197" lon="3.59461">
        <ele>636.42749</ele>
        <time>2011-04-11T20:56:48Z</time>
      </trkpt>
      <trkpt lat="45.03191" lon="3.59454">
        <ele>635.352478</ele>
        <time>2011-04-11T20:56:48Z</time>
      </trkpt>
      <trkpt lat="45.03185" lon="3.59443">
        <ele>632.987488</ele>
        <time>2011-04-11T20:56:48Z</time>
      </trkpt>
      <trkpt lat="45.03185" lon="3.59438">
        <ele>631.54126</ele>
        <time>2011-04-11T20:56:48Z</time>
      </trkpt>
      <trkpt lat="45.0319" lon="3.59434">
        <ele>629.654419</ele>
        <time>2011-04-11T20:56:48Z</time>
      </trkpt>
      <trkpt lat="45.03199" lon="3.59438">
        <ele>630.186279</ele>
        <time>2011-04-11T20:56:48Z</time>
      </trkpt>
      <trkpt lat="45.03207" lon="3.59441">
        <ele>630.304993</ele>
        <time>2011-04-11T20:56:48Z</time>
      </trkpt>
      <trkpt lat="45.03222" lon="3.59441">
        <ele>628.936157</ele>
        <time>2011-04-11T20:56:48Z</time>
      </trkpt>
      <trkpt lat="45.03242" lon="3.59444">
        <ele>627.914734</ele>
        <time>2011-04-11T20:56:48Z</time>
      </trkpt>
      <trkpt lat="45.03251" lon="3.59441">
        <ele>626.289185</ele>
        <time>2011-04-11T20:56:48Z</time>
      </trkpt>
      <trkpt lat="45.03271" lon="3.59441">
        <ele>625.404785</ele>
        <time>2011-04-11T20:56:48Z</time>
      </trkpt>
      <trkpt lat="45.03286" lon="3.59436">
        <ele>625.34375</ele>
        <time>2011-04-11T20:56:48Z</time>
      </trkpt>
      <trkpt lat="45.03298" lon="3.59428">
        <ele>623.318726</ele>
        <time>2011-04-11T20:56:48Z</time>
      </trkpt>
      <trkpt lat="45.03304" lon="3.59425">
        <ele>622.787476</ele>
        <time>2011-04-11T20:56:48Z</time>
      </trkpt>
      <trkpt lat="45.03305" lon="3.59421">
        <ele>621.068726</ele>
        <time>2011-04-11T20:56:48Z</time>
      </trkpt>
      <trkpt lat="45.03299" lon="3.59419">
        <ele>619.931274</ele>
        <time>2011-04-11T20:56:48Z</time>
      </trkpt>
      <trkpt lat="45.03295" lon="3.59418">
        <ele>619.056274</ele>
        <time>2011-04-11T20:56:48Z</time>
      </trkpt>
      <trkpt lat="45.0329" lon="3.59415">
        <ele>617.412476</ele>
        <time>2011-04-11T20:56:48Z</time>
      </trkpt>
      <trkpt lat="45.03282" lon="3.59413">
        <ele>615.912476</ele>
        <time>2011-04-11T20:56:48Z</time>
      </trkpt>
      <trkpt lat="45.03277" lon="3.59409">
        <ele>613.700012</ele>
        <time>2011-04-11T20:56:48Z</time>
      </trkpt>
      <trkpt lat="45.03269" lon="3.59401">
        <ele>609.78125</ele>
        <time>2011-04-11T20:56:48Z</time>
      </trkpt>
      <trkpt lat="45.03254" lon="3.59387">
        <ele>604.411987</ele>
        <time>2011-04-11T20:56:48Z</time>
      </trkpt>
      <trkpt lat="45.03239" lon="3.59386">
        <ele>604.47168</ele>
        <time>2011-04-11T20:56:48Z</time>
      </trkpt>
      <trkpt lat="45.03222" lon="3.59384">
        <ele>604.726013</ele>
        <time>2011-04-11T20:56:48Z</time>
      </trkpt>
      <trkpt lat="45.03209" lon="3.59382">
        <ele>604.441956</ele>
        <time>2011-04-11T20:56:48Z</time>
      </trkpt>
      <trkpt lat="45.03194" lon="3.5938">
        <ele>604.91803</ele>
        <time>2011-04-11T20:56:48Z</time>
      </trkpt>
      <trkpt lat="45.03179" lon="3.59379">
        <ele>605.719177</ele>
        <time>2011-04-11T20:56:48Z</time>
      </trkpt>
      <trkpt lat="45.03166" lon="3.59372">
        <ele>603.849976</ele>
        <time>2011-04-11T20:56:48Z</time>
      </trkpt>
      <trkpt lat="45.03155" lon="3.59365">
        <ele>601.394592</ele>
        <time>2011-04-11T20:56:48Z</time>
      </trkpt>
      <trkpt lat="45.0315" lon="3.59362">
        <ele>600.379395</ele>
        <time>2011-04-11T20:56:48Z</time>
      </trkpt>
      <trkpt lat="45.03143" lon="3.59358">
        <ele>599.052917</ele>
        <time>2011-04-11T20:56:48Z</time>
      </trkpt>
      <trkpt lat="45.0313" lon="3.5935">
        <ele>596.659363</ele>
        <time>2011-04-11T20:56:48Z</time>
      </trkpt>
      <trkpt lat="45.03116" lon="3.5934">
        <ele>593.654297</ele>
        <time>2011-04-11T20:56:48Z</time>
      </trkpt>
      <trkpt lat="45.031" lon="3.59327">
        <ele>588.453735</ele>
        <time>2011-04-11T20:56:48Z</time>
      </trkpt>
      <trkpt lat="45.03085" lon="3.59326">
        <ele>588.602905</ele>
        <time>2011-04-11T20:56:48Z</time>
      </trkpt>
      <trkpt lat="45.03069" lon="3.59326">
        <ele>585.466248</ele>
        <time>2011-04-11T20:56:48Z</time>
      </trkpt>
      <trkpt lat="45.03057" lon="3.5933">
        <ele>586.389404</ele>
        <time>2011-04-11T20:56:48Z</time>
      </trkpt>
      <trkpt lat="45.03045" lon="3.59335">
        <ele>588.116516</ele>
        <time>2011-04-11T20:56:48Z</time>
      </trkpt>
      <trkpt lat="45.03037" lon="3.59336">
        <ele>586.471313</ele>
        <time>2011-04-11T20:56:48Z</time>
      </trkpt>
      <trkpt lat="45.03027" lon="3.59343">
        <ele>586.109497</ele>
        <time>2011-04-11T20:56:48Z</time>
      </trkpt>
      <trkpt lat="45.03016" lon="3.59348">
        <ele>583.221985</ele>
        <time>2011-04-11T20:56:48Z</time>
      </trkpt>
      <trkpt lat="45.03011" lon="3.5935">
        <ele>581.507263</ele>
        <time>2011-04-11T20:56:48Z</time>
      </trkpt>
      <trkpt lat="45.03003" lon="3.59356">
        <ele>580.080872</ele>
        <time>2011-04-11T20:56:48Z</time>
      </trkpt>
      <trkpt lat="45.03002" lon="3.59358">
        <ele>580.288757</ele>
        <time>2011-04-11T20:56:48Z</time>
      </trkpt>
      <trkpt lat="45.02999" lon="3.59364">
        <ele>581.717407</ele>
        <time>2011-04-11T20:56:48Z</time>
      </trkpt>
      <trkpt lat="45.02992" lon="3.59377">
        <ele>583.484558</ele>
        <time>2011-04-11T20:56:48Z</time>
      </trkpt>
      <trkpt lat="45.02986" lon="3.59385">
        <ele>582.256104</ele>
        <time>2011-04-11T20:56:48Z</time>
      </trkpt>
      <trkpt lat="45.02983" lon="3.59389">
        <ele>580.660706</ele>
        <time>2011-04-11T20:56:48Z</time>
      </trkpt>
      <trkpt lat="45.0298" lon="3.59389">
        <ele>577.187622</ele>
        <time>2011-04-11T20:56:48Z</time>
      </trkpt>
      <trkpt lat="45.02977" lon="3.5939">
        <ele>574.144592</ele>
        <time>2011-04-11T20:56:48Z</time>
      </trkpt>
      <trkpt lat="45.02974" lon="3.59394">
        <ele>571.883118</ele>
        <time>2011-04-11T20:56:48Z</time>
      </trkpt>
      <trkpt lat="45.0297" lon="3.594">
        <ele>569.606323</ele>
        <time>2011-04-11T20:56:48Z</time>
      </trkpt>
      <trkpt lat="45.02968" lon="3.59407">
        <ele>568.457947</ele>
        <time>2011-04-11T20:56:48Z</time>
      </trkpt>
      <trkpt lat="45.02966" lon="3.59418">
        <ele>568.595276</ele>
        <time>2011-04-11T20:56:48Z</time>
      </trkpt>
      <trkpt lat="45.02966" lon="3.59431">
        <ele>571.912964</ele>
        <time>2011-04-11T20:56:48Z</time>
      </trkpt>
      <trkpt lat="45.02966" lon="3.59444">
        <ele>569.840149</ele>
        <time>2011-04-11T20:56:48Z</time>
      </trkpt>
      <trkpt lat="45.02964" lon="3.59457">
        <ele>565.117249</ele>
        <time>2011-04-11T20:56:48Z</time>
      </trkpt>
      <trkpt lat="45.02961" lon="3.59465">
        <ele>560.118103</ele>
        <time>2011-04-11T20:56:48Z</time>
      </trkpt>
      <trkpt lat="45.02958" lon="3.59466">
        <ele>555.8974</ele>
        <time>2011-04-11T20:56:48Z</time>
      </trkpt>
      <trkpt lat="45.02954" lon="3.59465">
        <ele>551.464844</ele>
        <time>2011-04-11T20:56:48Z</time>
      </trkpt>
      <trkpt lat="45.02939" lon="3.59469">
        <ele>545.080017</ele>
        <time>2011-04-11T20:56:48Z</time>
      </trkpt>
      <trkpt lat="45.02913" lon="3.59471">
        <ele>540.460022</ele>
        <time>2011-04-11T20:56:48Z</time>
      </trkpt>
      <trkpt lat="45.02899" lon="3.59472">
        <ele>539.328613</ele>
        <time>2011-04-11T20:56:48Z</time>
      </trkpt>
      <trkpt lat="45.02849" lon="3.59439">
        <ele>544</ele>
        <time>2012-01-30T11:52:24Z</time>
      </trkpt>
    </trkseg>
  </trk>
</gpx>